<?xml version="1.0" encoding="UTF-8" standalone="no" ?>
<gpx xmlns="http://www.topografix.com/GPX/1/1" xmlns:xsi="http://www.w3.org/2001/XMLSchema-instance" xsi:schemaLocation="http://www.topografix.com/GPX/1/1 http://www.topografix.com/GPX/1/1/gpx.xsd" version="1.1" creator="VisuGPX - https://www.visugpx.com">
  <metadata>
    <name>Randonnée à la Chapelle Saint Michel</name>
    <desc><![CDATA[Aprés modif VisuGPX]]></desc>
  </metadata>
  <trk>
    <name><![CDATA[Modif 5 Saint Michel_1]]></name>
    <extensions>
      <line xmlns="http://www.topografix.com/GPX/gpx_style/0/2">
        <color>0000FF</color>
        <width>4</width>
      </line>
    </extensions>
    <trkseg>
      <trkpt lat="44.52437" lon="6.34105">
        <ele>849.46</ele>
        <time>2012-04-03T06:11:59Z</time>
      </trkpt>
      <trkpt lat="44.52437" lon="6.34105">
        <ele>849.46</ele>
        <time>2012-04-03T06:11:59Z</time>
      </trkpt>
      <trkpt lat="44.52438" lon="6.34102">
        <ele>847.06</ele>
        <time>2012-04-03T06:12:02Z</time>
      </trkpt>
      <trkpt lat="44.52439" lon="6.34097">
        <ele>843.69</ele>
        <time>2012-04-03T06:12:06Z</time>
      </trkpt>
      <trkpt lat="44.52439" lon="6.34096">
        <ele>843.69</ele>
        <time>2012-04-03T06:12:07Z</time>
      </trkpt>
      <trkpt lat="44.5244" lon="6.34094">
        <ele>842.25</ele>
        <time>2012-04-03T06:12:09Z</time>
      </trkpt>
      <trkpt lat="44.5244" lon="6.34093">
        <ele>839.37</ele>
        <time>2012-04-03T06:12:10Z</time>
      </trkpt>
      <trkpt lat="44.52444" lon="6.34082">
        <ele>831.2</ele>
        <time>2012-04-03T06:12:20Z</time>
      </trkpt>
      <trkpt lat="44.52445" lon="6.34081">
        <ele>836.96</ele>
        <time>2012-04-03T06:12:21Z</time>
      </trkpt>
      <trkpt lat="44.52449" lon="6.34073">
        <ele>833.6</ele>
        <time>2012-04-03T06:12:28Z</time>
      </trkpt>
      <trkpt lat="44.52453" lon="6.34067">
        <ele>829.76</ele>
        <time>2012-04-03T06:12:34Z</time>
      </trkpt>
      <trkpt lat="44.52455" lon="6.34062">
        <ele>829.76</ele>
        <time>2012-04-03T06:12:39Z</time>
      </trkpt>
      <trkpt lat="44.52464" lon="6.3405">
        <ele>826.87</ele>
        <time>2012-04-03T06:12:50Z</time>
      </trkpt>
      <trkpt lat="44.52465" lon="6.34047">
        <ele>826.87</ele>
        <time>2012-04-03T06:12:53Z</time>
      </trkpt>
      <trkpt lat="44.5247" lon="6.34036">
        <ele>824.95</ele>
        <time>2012-04-03T06:13:00Z</time>
      </trkpt>
      <trkpt lat="44.52473" lon="6.34028">
        <ele>823.99</ele>
        <time>2012-04-03T06:13:05Z</time>
      </trkpt>
      <trkpt lat="44.52474" lon="6.34022">
        <ele>822.55</ele>
        <time>2012-04-03T06:13:11Z</time>
      </trkpt>
      <trkpt lat="44.52474" lon="6.34016">
        <ele>822.55</ele>
        <time>2012-04-03T06:13:15Z</time>
      </trkpt>
      <trkpt lat="44.52472" lon="6.3401">
        <ele>821.1</ele>
        <time>2012-04-03T06:13:19Z</time>
      </trkpt>
      <trkpt lat="44.5247" lon="6.34001">
        <ele>821.1</ele>
        <time>2012-04-03T06:13:26Z</time>
      </trkpt>
      <trkpt lat="44.52468" lon="6.33999">
        <ele>821.1</ele>
        <time>2012-04-03T06:13:28Z</time>
      </trkpt>
      <trkpt lat="44.52466" lon="6.33992">
        <ele>821.58</ele>
        <time>2012-04-03T06:13:32Z</time>
      </trkpt>
      <trkpt lat="44.52463" lon="6.33985">
        <ele>821.1</ele>
        <time>2012-04-03T06:13:37Z</time>
      </trkpt>
      <trkpt lat="44.52462" lon="6.33982">
        <ele>821.1</ele>
        <time>2012-04-03T06:13:41Z</time>
      </trkpt>
      <trkpt lat="44.52462" lon="6.33979">
        <ele>821.1</ele>
        <time>2012-04-03T06:13:43Z</time>
      </trkpt>
      <trkpt lat="44.52458" lon="6.33962">
        <ele>822.55</ele>
        <time>2012-04-03T06:13:54Z</time>
      </trkpt>
      <trkpt lat="44.52452" lon="6.33963">
        <ele>821.1</ele>
        <time>2012-04-03T06:13:59Z</time>
      </trkpt>
      <trkpt lat="44.52451" lon="6.33959">
        <ele>822.55</ele>
        <time>2012-04-03T06:14:02Z</time>
      </trkpt>
      <trkpt lat="44.5245" lon="6.33958">
        <ele>821.1</ele>
        <time>2012-04-03T06:14:03Z</time>
      </trkpt>
      <trkpt lat="44.52446" lon="6.33952">
        <ele>823.03</ele>
        <time>2012-04-03T06:14:08Z</time>
      </trkpt>
      <trkpt lat="44.5244" lon="6.33951">
        <ele>823.99</ele>
        <time>2012-04-03T06:14:13Z</time>
      </trkpt>
      <trkpt lat="44.52438" lon="6.33951">
        <ele>822.55</ele>
        <time>2012-04-03T06:14:16Z</time>
      </trkpt>
      <trkpt lat="44.52436" lon="6.33948">
        <ele>824.47</ele>
        <time>2012-04-03T06:14:19Z</time>
      </trkpt>
      <trkpt lat="44.52429" lon="6.33943">
        <ele>824.95</ele>
        <time>2012-04-03T06:14:25Z</time>
      </trkpt>
      <trkpt lat="44.52426" lon="6.33944">
        <ele>825.43</ele>
        <time>2012-04-03T06:14:28Z</time>
      </trkpt>
      <trkpt lat="44.52419" lon="6.33945">
        <ele>825.43</ele>
        <time>2012-04-03T06:14:34Z</time>
      </trkpt>
      <trkpt lat="44.52416" lon="6.33941">
        <ele>825.43</ele>
        <time>2012-04-03T06:14:40Z</time>
      </trkpt>
      <trkpt lat="44.52412" lon="6.33937">
        <ele>823.03</ele>
        <time>2012-04-03T06:14:47Z</time>
      </trkpt>
      <trkpt lat="44.52405" lon="6.33937">
        <ele>821.1</ele>
        <time>2012-04-03T06:14:57Z</time>
      </trkpt>
      <trkpt lat="44.524" lon="6.33935">
        <ele>819.66</ele>
        <time>2012-04-03T06:15:02Z</time>
      </trkpt>
      <trkpt lat="44.52392" lon="6.33932">
        <ele>817.74</ele>
        <time>2012-04-03T06:15:12Z</time>
      </trkpt>
      <trkpt lat="44.52388" lon="6.33933">
        <ele>816.3</ele>
        <time>2012-04-03T06:15:17Z</time>
      </trkpt>
      <trkpt lat="44.52378" lon="6.33928">
        <ele>817.74</ele>
        <time>2012-04-03T06:15:29Z</time>
      </trkpt>
      <trkpt lat="44.52378" lon="6.33927">
        <ele>817.74</ele>
        <time>2012-04-03T06:15:30Z</time>
      </trkpt>
      <trkpt lat="44.52373" lon="6.33925">
        <ele>816.78</ele>
        <time>2012-04-03T06:15:35Z</time>
      </trkpt>
      <trkpt lat="44.52367" lon="6.33925">
        <ele>815.82</ele>
        <time>2012-04-03T06:15:41Z</time>
      </trkpt>
      <trkpt lat="44.52361" lon="6.33925">
        <ele>815.34</ele>
        <time>2012-04-03T06:15:47Z</time>
      </trkpt>
      <trkpt lat="44.52356" lon="6.33926">
        <ele>814.37</ele>
        <time>2012-04-03T06:15:51Z</time>
      </trkpt>
      <trkpt lat="44.5235" lon="6.33928">
        <ele>813.41</ele>
        <time>2012-04-03T06:15:59Z</time>
      </trkpt>
      <trkpt lat="44.52347" lon="6.33926">
        <ele>812.45</ele>
        <time>2012-04-03T06:16:04Z</time>
      </trkpt>
      <trkpt lat="44.52334" lon="6.33924">
        <ele>811.49</ele>
        <time>2012-04-03T06:16:16Z</time>
      </trkpt>
      <trkpt lat="44.5233" lon="6.33921">
        <ele>810.53</ele>
        <time>2012-04-03T06:16:20Z</time>
      </trkpt>
      <trkpt lat="44.52328" lon="6.33921">
        <ele>811.49</ele>
        <time>2012-04-03T06:16:22Z</time>
      </trkpt>
      <trkpt lat="44.52322" lon="6.3392">
        <ele>810.05</ele>
        <time>2012-04-03T06:16:28Z</time>
      </trkpt>
      <trkpt lat="44.52318" lon="6.33917">
        <ele>809.57</ele>
        <time>2012-04-03T06:16:33Z</time>
      </trkpt>
      <trkpt lat="44.52315" lon="6.33915">
        <ele>809.09</ele>
        <time>2012-04-03T06:16:35Z</time>
      </trkpt>
      <trkpt lat="44.52312" lon="6.33911">
        <ele>809.57</ele>
        <time>2012-04-03T06:16:40Z</time>
      </trkpt>
      <trkpt lat="44.52309" lon="6.33909">
        <ele>809.57</ele>
        <time>2012-04-03T06:16:43Z</time>
      </trkpt>
      <trkpt lat="44.523" lon="6.33902">
        <ele>808.61</ele>
        <time>2012-04-03T06:16:51Z</time>
      </trkpt>
      <trkpt lat="44.52298" lon="6.33901">
        <ele>809.09</ele>
        <time>2012-04-03T06:16:53Z</time>
      </trkpt>
      <trkpt lat="44.52285" lon="6.33895">
        <ele>808.61</ele>
        <time>2012-04-03T06:17:03Z</time>
      </trkpt>
      <trkpt lat="44.52284" lon="6.33894">
        <ele>808.61</ele>
        <time>2012-04-03T06:17:05Z</time>
      </trkpt>
      <trkpt lat="44.52273" lon="6.33894">
        <ele>807.16</ele>
        <time>2012-04-03T06:17:15Z</time>
      </trkpt>
      <trkpt lat="44.52269" lon="6.33893">
        <ele>806.68</ele>
        <time>2012-04-03T06:17:18Z</time>
      </trkpt>
      <trkpt lat="44.52265" lon="6.33893">
        <ele>806.2</ele>
        <time>2012-04-03T06:17:22Z</time>
      </trkpt>
      <trkpt lat="44.52263" lon="6.33894">
        <ele>806.68</ele>
        <time>2012-04-03T06:17:24Z</time>
      </trkpt>
      <trkpt lat="44.52253" lon="6.33895">
        <ele>805.24</ele>
        <time>2012-04-03T06:17:33Z</time>
      </trkpt>
      <trkpt lat="44.52246" lon="6.33893">
        <ele>805.24</ele>
        <time>2012-04-03T06:17:39Z</time>
      </trkpt>
      <trkpt lat="44.52244" lon="6.33894">
        <ele>804.76</ele>
        <time>2012-04-03T06:17:41Z</time>
      </trkpt>
      <trkpt lat="44.52237" lon="6.33894">
        <ele>804.28</ele>
        <time>2012-04-03T06:17:47Z</time>
      </trkpt>
      <trkpt lat="44.5223" lon="6.33895">
        <ele>803.32</ele>
        <time>2012-04-03T06:17:53Z</time>
      </trkpt>
      <trkpt lat="44.52228" lon="6.33895">
        <ele>803.32</ele>
        <time>2012-04-03T06:17:56Z</time>
      </trkpt>
      <trkpt lat="44.52221" lon="6.33893">
        <ele>802.84</ele>
        <time>2012-04-03T06:18:02Z</time>
      </trkpt>
      <trkpt lat="44.52219" lon="6.33893">
        <ele>802.36</ele>
        <time>2012-04-03T06:18:04Z</time>
      </trkpt>
      <trkpt lat="44.52214" lon="6.33892">
        <ele>801.88</ele>
        <time>2012-04-03T06:18:09Z</time>
      </trkpt>
      <trkpt lat="44.52211" lon="6.33891">
        <ele>801.88</ele>
        <time>2012-04-03T06:18:12Z</time>
      </trkpt>
      <trkpt lat="44.52206" lon="6.33889">
        <ele>802.36</ele>
        <time>2012-04-03T06:18:18Z</time>
      </trkpt>
      <trkpt lat="44.52203" lon="6.33888">
        <ele>802.36</ele>
        <time>2012-04-03T06:18:20Z</time>
      </trkpt>
      <trkpt lat="44.52193" lon="6.33882">
        <ele>801.88</ele>
        <time>2012-04-03T06:18:28Z</time>
      </trkpt>
      <trkpt lat="44.52189" lon="6.33879">
        <ele>800.92</ele>
        <time>2012-04-03T06:18:33Z</time>
      </trkpt>
      <trkpt lat="44.52187" lon="6.33877">
        <ele>801.4</ele>
        <time>2012-04-03T06:18:35Z</time>
      </trkpt>
      <trkpt lat="44.52181" lon="6.3387">
        <ele>800.44</ele>
        <time>2012-04-03T06:18:42Z</time>
      </trkpt>
      <trkpt lat="44.52175" lon="6.33861">
        <ele>798.51</ele>
        <time>2012-04-03T06:18:51Z</time>
      </trkpt>
      <trkpt lat="44.52166" lon="6.33848">
        <ele>797.07</ele>
        <time>2012-04-03T06:19:04Z</time>
      </trkpt>
      <trkpt lat="44.52165" lon="6.33846">
        <ele>796.11</ele>
        <time>2012-04-03T06:19:07Z</time>
      </trkpt>
      <trkpt lat="44.52159" lon="6.33832">
        <ele>794.67</ele>
        <time>2012-04-03T06:19:19Z</time>
      </trkpt>
      <trkpt lat="44.52156" lon="6.33826">
        <ele>794.67</ele>
        <time>2012-04-03T06:19:23Z</time>
      </trkpt>
      <trkpt lat="44.52153" lon="6.33818">
        <ele>794.67</ele>
        <time>2012-04-03T06:19:30Z</time>
      </trkpt>
      <trkpt lat="44.52152" lon="6.33813">
        <ele>794.19</ele>
        <time>2012-04-03T06:19:34Z</time>
      </trkpt>
      <trkpt lat="44.5215" lon="6.33809">
        <ele>794.19</ele>
        <time>2012-04-03T06:19:37Z</time>
      </trkpt>
      <trkpt lat="44.52146" lon="6.3379">
        <ele>793.71</ele>
        <time>2012-04-03T06:19:48Z</time>
      </trkpt>
      <trkpt lat="44.52146" lon="6.33782">
        <ele>791.78</ele>
        <time>2012-04-03T06:19:57Z</time>
      </trkpt>
      <trkpt lat="44.5215" lon="6.33776">
        <ele>790.34</ele>
        <time>2012-04-03T06:20:07Z</time>
      </trkpt>
      <trkpt lat="44.52151" lon="6.33774">
        <ele>789.86</ele>
        <time>2012-04-03T06:20:09Z</time>
      </trkpt>
      <trkpt lat="44.52153" lon="6.33772">
        <ele>789.38</ele>
        <time>2012-04-03T06:20:14Z</time>
      </trkpt>
      <trkpt lat="44.52154" lon="6.33768">
        <ele>788.9</ele>
        <time>2012-04-03T06:20:25Z</time>
      </trkpt>
      <trkpt lat="44.52154" lon="6.33765">
        <ele>786.02</ele>
        <time>2012-04-03T06:20:37Z</time>
      </trkpt>
      <trkpt lat="44.52151" lon="6.33765">
        <ele>783.61</ele>
        <time>2012-04-03T06:20:48Z</time>
      </trkpt>
      <trkpt lat="44.52147" lon="6.33768">
        <ele>782.17</ele>
        <time>2012-04-03T06:21:00Z</time>
      </trkpt>
      <trkpt lat="44.52138" lon="6.3377">
        <ele>781.69</ele>
        <time>2012-04-03T06:21:10Z</time>
      </trkpt>
      <trkpt lat="44.52132" lon="6.33767">
        <ele>779.77</ele>
        <time>2012-04-03T06:21:18Z</time>
      </trkpt>
      <trkpt lat="44.52131" lon="6.33764">
        <ele>779.29</ele>
        <time>2012-04-03T06:21:30Z</time>
      </trkpt>
      <trkpt lat="44.52133" lon="6.3376">
        <ele>778.32</ele>
        <time>2012-04-03T06:24:00Z</time>
      </trkpt>
      <trkpt lat="44.52133" lon="6.33758">
        <ele>777.84</ele>
        <time>2012-04-03T06:24:02Z</time>
      </trkpt>
      <trkpt lat="44.52133" lon="6.3375">
        <ele>775.92</ele>
        <time>2012-04-03T06:24:12Z</time>
      </trkpt>
      <trkpt lat="44.52132" lon="6.33747">
        <ele>775.44</ele>
        <time>2012-04-03T06:24:16Z</time>
      </trkpt>
      <trkpt lat="44.52131" lon="6.33735">
        <ele>773.52</ele>
        <time>2012-04-03T06:24:26Z</time>
      </trkpt>
      <trkpt lat="44.52129" lon="6.33727">
        <ele>772.08</ele>
        <time>2012-04-03T06:24:33Z</time>
      </trkpt>
      <trkpt lat="44.52128" lon="6.33722">
        <ele>771.11</ele>
        <time>2012-04-03T06:24:38Z</time>
      </trkpt>
      <trkpt lat="44.52127" lon="6.33717">
        <ele>771.11</ele>
        <time>2012-04-03T06:24:41Z</time>
      </trkpt>
      <trkpt lat="44.52124" lon="6.33705">
        <ele>769.19</ele>
        <time>2012-04-03T06:24:51Z</time>
      </trkpt>
      <trkpt lat="44.52123" lon="6.33701">
        <ele>769.19</ele>
        <time>2012-04-03T06:24:54Z</time>
      </trkpt>
      <trkpt lat="44.52123" lon="6.33696">
        <ele>768.71</ele>
        <time>2012-04-03T06:24:57Z</time>
      </trkpt>
      <trkpt lat="44.52121" lon="6.33679">
        <ele>766.79</ele>
        <time>2012-04-03T06:25:10Z</time>
      </trkpt>
      <trkpt lat="44.52121" lon="6.33678">
        <ele>766.79</ele>
        <time>2012-04-03T06:25:11Z</time>
      </trkpt>
      <trkpt lat="44.52121" lon="6.33669">
        <ele>767.27</ele>
        <time>2012-04-03T06:25:18Z</time>
      </trkpt>
      <trkpt lat="44.5212" lon="6.33656">
        <ele>766.79</ele>
        <time>2012-04-03T06:25:27Z</time>
      </trkpt>
      <trkpt lat="44.52119" lon="6.3365">
        <ele>765.83</ele>
        <time>2012-04-03T06:25:31Z</time>
      </trkpt>
      <trkpt lat="44.52119" lon="6.33645">
        <ele>766.31</ele>
        <time>2012-04-03T06:25:34Z</time>
      </trkpt>
      <trkpt lat="44.52119" lon="6.33639">
        <ele>766.31</ele>
        <time>2012-04-03T06:25:37Z</time>
      </trkpt>
      <trkpt lat="44.52118" lon="6.33635">
        <ele>766.31</ele>
        <time>2012-04-03T06:25:40Z</time>
      </trkpt>
      <trkpt lat="44.52117" lon="6.33626">
        <ele>766.79</ele>
        <time>2012-04-03T06:25:46Z</time>
      </trkpt>
      <trkpt lat="44.52116" lon="6.33618">
        <ele>767.27</ele>
        <time>2012-04-03T06:25:52Z</time>
      </trkpt>
      <trkpt lat="44.52112" lon="6.33605">
        <ele>768.23</ele>
        <time>2012-04-03T06:26:04Z</time>
      </trkpt>
      <trkpt lat="44.52108" lon="6.33596">
        <ele>769.67</ele>
        <time>2012-04-03T06:26:14Z</time>
      </trkpt>
      <trkpt lat="44.52106" lon="6.33593">
        <ele>770.15</ele>
        <time>2012-04-03T06:26:17Z</time>
      </trkpt>
      <trkpt lat="44.52102" lon="6.33588">
        <ele>770.63</ele>
        <time>2012-04-03T06:26:23Z</time>
      </trkpt>
      <trkpt lat="44.521" lon="6.33584">
        <ele>770.63</ele>
        <time>2012-04-03T06:26:27Z</time>
      </trkpt>
      <trkpt lat="44.52098" lon="6.3358">
        <ele>770.63</ele>
        <time>2012-04-03T06:26:31Z</time>
      </trkpt>
      <trkpt lat="44.52095" lon="6.33576">
        <ele>771.6</ele>
        <time>2012-04-03T06:26:35Z</time>
      </trkpt>
      <trkpt lat="44.52089" lon="6.3357">
        <ele>771.11</ele>
        <time>2012-04-03T06:26:43Z</time>
      </trkpt>
      <trkpt lat="44.52082" lon="6.33557">
        <ele>772.08</ele>
        <time>2012-04-03T06:26:56Z</time>
      </trkpt>
      <trkpt lat="44.52081" lon="6.33556">
        <ele>772.08</ele>
        <time>2012-04-03T06:26:57Z</time>
      </trkpt>
      <trkpt lat="44.52079" lon="6.33554">
        <ele>772.08</ele>
        <time>2012-04-03T06:27:00Z</time>
      </trkpt>
      <trkpt lat="44.52074" lon="6.3355">
        <ele>772.56</ele>
        <time>2012-04-03T06:27:07Z</time>
      </trkpt>
      <trkpt lat="44.52072" lon="6.33547">
        <ele>773.04</ele>
        <time>2012-04-03T06:27:10Z</time>
      </trkpt>
      <trkpt lat="44.52065" lon="6.33541">
        <ele>774.96</ele>
        <time>2012-04-03T06:27:21Z</time>
      </trkpt>
      <trkpt lat="44.52059" lon="6.33533">
        <ele>775.44</ele>
        <time>2012-04-03T06:27:31Z</time>
      </trkpt>
      <trkpt lat="44.52055" lon="6.3353">
        <ele>776.4</ele>
        <time>2012-04-03T06:27:40Z</time>
      </trkpt>
      <trkpt lat="44.52055" lon="6.3353">
        <ele>776.88</ele>
        <time>2012-04-03T06:27:45Z</time>
      </trkpt>
      <trkpt lat="44.52053" lon="6.33527">
        <ele>778.32</ele>
        <time>2012-04-03T06:27:56Z</time>
      </trkpt>
      <trkpt lat="44.52052" lon="6.33525">
        <ele>779.29</ele>
        <time>2012-04-03T06:28:08Z</time>
      </trkpt>
      <trkpt lat="44.52049" lon="6.33521">
        <ele>780.25</ele>
        <time>2012-04-03T06:28:26Z</time>
      </trkpt>
      <trkpt lat="44.52048" lon="6.33518">
        <ele>780.25</ele>
        <time>2012-04-03T06:28:29Z</time>
      </trkpt>
      <trkpt lat="44.52047" lon="6.33516">
        <ele>781.21</ele>
        <time>2012-04-03T06:28:31Z</time>
      </trkpt>
      <trkpt lat="44.52043" lon="6.33509">
        <ele>783.13</ele>
        <time>2012-04-03T06:28:45Z</time>
      </trkpt>
      <trkpt lat="44.52041" lon="6.33508">
        <ele>784.57</ele>
        <time>2012-04-03T06:28:56Z</time>
      </trkpt>
      <trkpt lat="44.52038" lon="6.33505">
        <ele>783.61</ele>
        <time>2012-04-03T06:29:07Z</time>
      </trkpt>
      <trkpt lat="44.52038" lon="6.33505">
        <ele>784.57</ele>
        <time>2012-04-03T06:29:11Z</time>
      </trkpt>
      <trkpt lat="44.5204" lon="6.335">
        <ele>786.02</ele>
        <time>2012-04-03T06:29:25Z</time>
      </trkpt>
      <trkpt lat="44.5204" lon="6.33495">
        <ele>785.53</ele>
        <time>2012-04-03T06:29:37Z</time>
      </trkpt>
      <trkpt lat="44.5204" lon="6.33498">
        <ele>785.05</ele>
        <time>2012-04-03T06:29:50Z</time>
      </trkpt>
      <trkpt lat="44.5204" lon="6.33498">
        <ele>785.05</ele>
        <time>2012-04-03T06:30:09Z</time>
      </trkpt>
      <trkpt lat="44.5204" lon="6.33498">
        <ele>785.05</ele>
        <time>2012-04-03T06:30:29Z</time>
      </trkpt>
      <trkpt lat="44.5204" lon="6.33496">
        <ele>785.53</ele>
        <time>2012-04-03T06:30:44Z</time>
      </trkpt>
      <trkpt lat="44.52041" lon="6.33491">
        <ele>786.02</ele>
        <time>2012-04-03T06:30:56Z</time>
      </trkpt>
      <trkpt lat="44.52042" lon="6.3348">
        <ele>786.5</ele>
        <time>2012-04-03T06:31:07Z</time>
      </trkpt>
      <trkpt lat="44.52044" lon="6.33477">
        <ele>786.98</ele>
        <time>2012-04-03T06:31:21Z</time>
      </trkpt>
      <trkpt lat="44.52048" lon="6.33473">
        <ele>786.5</ele>
        <time>2012-04-03T06:31:33Z</time>
      </trkpt>
      <trkpt lat="44.52051" lon="6.33467">
        <ele>786.5</ele>
        <time>2012-04-03T06:31:47Z</time>
      </trkpt>
      <trkpt lat="44.52055" lon="6.3347">
        <ele>786.5</ele>
        <time>2012-04-03T06:32:02Z</time>
      </trkpt>
      <trkpt lat="44.52056" lon="6.3347">
        <ele>786.5</ele>
        <time>2012-04-03T06:32:21Z</time>
      </trkpt>
      <trkpt lat="44.52057" lon="6.3347">
        <ele>786.98</ele>
        <time>2012-04-03T06:32:42Z</time>
      </trkpt>
      <trkpt lat="44.52057" lon="6.3347">
        <ele>786.98</ele>
        <time>2012-04-03T06:33:14Z</time>
      </trkpt>
      <trkpt lat="44.52057" lon="6.3347">
        <ele>786.98</ele>
        <time>2012-04-03T06:33:40Z</time>
      </trkpt>
      <trkpt lat="44.52057" lon="6.3347">
        <ele>786.98</ele>
        <time>2012-04-03T06:34:08Z</time>
      </trkpt>
      <trkpt lat="44.52057" lon="6.3347">
        <ele>786.98</ele>
        <time>2012-04-03T06:34:32Z</time>
      </trkpt>
      <trkpt lat="44.52057" lon="6.3347">
        <ele>786.98</ele>
        <time>2012-04-03T06:34:56Z</time>
      </trkpt>
      <trkpt lat="44.52058" lon="6.33469">
        <ele>787.46</ele>
        <time>2012-04-03T06:35:21Z</time>
      </trkpt>
      <trkpt lat="44.52058" lon="6.33469">
        <ele>787.46</ele>
        <time>2012-04-03T06:35:44Z</time>
      </trkpt>
      <trkpt lat="44.52062" lon="6.33468">
        <ele>787.46</ele>
        <time>2012-04-03T06:35:53Z</time>
      </trkpt>
      <trkpt lat="44.52065" lon="6.33466">
        <ele>786.98</ele>
        <time>2012-04-03T06:35:56Z</time>
      </trkpt>
      <trkpt lat="44.52067" lon="6.33467">
        <ele>786.5</ele>
        <time>2012-04-03T06:35:58Z</time>
      </trkpt>
      <trkpt lat="44.52068" lon="6.33471">
        <ele>786.5</ele>
        <time>2012-04-03T06:36:09Z</time>
      </trkpt>
      <trkpt lat="44.52068" lon="6.33474">
        <ele>786.02</ele>
        <time>2012-04-03T06:36:12Z</time>
      </trkpt>
      <trkpt lat="44.52066" lon="6.33481">
        <ele>786.98</ele>
        <time>2012-04-03T06:36:25Z</time>
      </trkpt>
      <trkpt lat="44.52068" lon="6.33482">
        <ele>785.05</ele>
        <time>2012-04-03T06:36:39Z</time>
      </trkpt>
      <trkpt lat="44.5207" lon="6.33479">
        <ele>783.61</ele>
        <time>2012-04-03T06:36:53Z</time>
      </trkpt>
      <trkpt lat="44.52071" lon="6.33479">
        <ele>783.13</ele>
        <time>2012-04-03T06:37:06Z</time>
      </trkpt>
      <trkpt lat="44.52075" lon="6.33478">
        <ele>781.69</ele>
        <time>2012-04-03T06:37:17Z</time>
      </trkpt>
      <trkpt lat="44.52079" lon="6.33479">
        <ele>779.77</ele>
        <time>2012-04-03T06:37:28Z</time>
      </trkpt>
      <trkpt lat="44.52081" lon="6.33476">
        <ele>778.81</ele>
        <time>2012-04-03T06:37:35Z</time>
      </trkpt>
      <trkpt lat="44.52085" lon="6.33479">
        <ele>777.36</ele>
        <time>2012-04-03T06:37:46Z</time>
      </trkpt>
      <trkpt lat="44.5209" lon="6.3348">
        <ele>775.92</ele>
        <time>2012-04-03T06:37:53Z</time>
      </trkpt>
      <trkpt lat="44.52093" lon="6.33489">
        <ele>774</ele>
        <time>2012-04-03T06:38:03Z</time>
      </trkpt>
      <trkpt lat="44.52094" lon="6.3349">
        <ele>774</ele>
        <time>2012-04-03T06:38:04Z</time>
      </trkpt>
      <trkpt lat="44.52095" lon="6.33497">
        <ele>773.04</ele>
        <time>2012-04-03T06:38:14Z</time>
      </trkpt>
      <trkpt lat="44.52095" lon="6.33501">
        <ele>772.56</ele>
        <time>2012-04-03T06:38:17Z</time>
      </trkpt>
      <trkpt lat="44.52096" lon="6.33504">
        <ele>772.08</ele>
        <time>2012-04-03T06:38:19Z</time>
      </trkpt>
      <trkpt lat="44.52099" lon="6.33515">
        <ele>771.6</ele>
        <time>2012-04-03T06:38:30Z</time>
      </trkpt>
      <trkpt lat="44.52104" lon="6.33524">
        <ele>770.63</ele>
        <time>2012-04-03T06:38:39Z</time>
      </trkpt>
      <trkpt lat="44.52105" lon="6.33526">
        <ele>770.63</ele>
        <time>2012-04-03T06:38:41Z</time>
      </trkpt>
      <trkpt lat="44.52111" lon="6.3354">
        <ele>770.63</ele>
        <time>2012-04-03T06:38:53Z</time>
      </trkpt>
      <trkpt lat="44.52116" lon="6.33549">
        <ele>770.63</ele>
        <time>2012-04-03T06:38:55Z</time>
      </trkpt>
      <trkpt lat="44.52119" lon="6.33555">
        <ele>770.63</ele>
        <time>2012-04-03T06:38:57Z</time>
      </trkpt>
      <trkpt lat="44.52125" lon="6.33566">
        <ele>769.67</ele>
        <time>2012-04-03T06:39:04Z</time>
      </trkpt>
      <trkpt lat="44.52131" lon="6.33584">
        <ele>771.11</ele>
        <time>2012-04-03T06:39:15Z</time>
      </trkpt>
      <trkpt lat="44.52134" lon="6.33591">
        <ele>771.11</ele>
        <time>2012-04-03T06:39:16Z</time>
      </trkpt>
      <trkpt lat="44.52142" lon="6.33607">
        <ele>770.63</ele>
        <time>2012-04-03T06:39:24Z</time>
      </trkpt>
      <trkpt lat="44.52147" lon="6.33621">
        <ele>770.63</ele>
        <time>2012-04-03T06:39:33Z</time>
      </trkpt>
      <trkpt lat="44.52147" lon="6.33621">
        <ele>754.379</ele>
        <time>2024-03-25T10:07:41Z</time>
      </trkpt>
      <trkpt lat="44.522" lon="6.33655">
        <ele>762.222</ele>
        <time>2024-03-25T10:08:36Z</time>
      </trkpt>
      <trkpt lat="44.52257" lon="6.33662">
        <ele>758.333</ele>
        <time>2024-03-25T10:09:30Z</time>
      </trkpt>
      <trkpt lat="44.52313" lon="6.33673">
        <ele>756.943</ele>
        <time>2024-03-25T10:10:25Z</time>
      </trkpt>
      <trkpt lat="44.52362" lon="6.33706">
        <ele>759.341</ele>
        <time>2024-03-25T10:11:19Z</time>
      </trkpt>
      <trkpt lat="44.52403" lon="6.33735">
        <ele>760.01</ele>
        <time>2024-03-25T10:12:14Z</time>
      </trkpt>
      <trkpt lat="44.52421" lon="6.33726">
        <ele>764.388</ele>
        <time>2024-03-25T10:13:09Z</time>
      </trkpt>
      <trkpt lat="44.5243" lon="6.3371">
        <ele>765.036</ele>
        <time>2024-03-25T10:14:04Z</time>
      </trkpt>
      <trkpt lat="44.52464" lon="6.33659">
        <ele>766.084</ele>
        <time>2024-03-25T10:14:59Z</time>
      </trkpt>
      <trkpt lat="44.52492" lon="6.33628">
        <ele>756.499</ele>
        <time>2024-03-25T10:15:53Z</time>
      </trkpt>
      <trkpt lat="44.52531" lon="6.33612">
        <ele>758.597</ele>
        <time>2024-03-25T10:16:47Z</time>
      </trkpt>
      <trkpt lat="44.52512" lon="6.33575">
        <ele>762.83</ele>
        <time>2024-03-25T10:17:41Z</time>
      </trkpt>
      <trkpt lat="44.5252" lon="6.33548">
        <ele>765.276</ele>
        <time>2024-03-25T10:18:36Z</time>
      </trkpt>
      <trkpt lat="44.52558" lon="6.33544">
        <ele>764.79</ele>
        <time>2024-03-25T10:19:30Z</time>
      </trkpt>
      <trkpt lat="44.52579" lon="6.33546">
        <ele>769.201</ele>
        <time>2024-03-25T10:20:24Z</time>
      </trkpt>
      <trkpt lat="44.52602" lon="6.33513">
        <ele>792.079</ele>
        <time>2024-03-25T10:21:19Z</time>
      </trkpt>
      <trkpt lat="44.52633" lon="6.33488">
        <ele>787.99</ele>
        <time>2024-03-25T10:22:14Z</time>
      </trkpt>
      <trkpt lat="44.52628" lon="6.33488">
        <ele>788.76</ele>
        <time>2024-03-25T10:23:08Z</time>
      </trkpt>
      <trkpt lat="44.52637" lon="6.33442">
        <ele>771.374</ele>
        <time>2024-03-25T10:24:03Z</time>
      </trkpt>
      <trkpt lat="44.52674" lon="6.33412">
        <ele>787.542</ele>
        <time>2024-03-25T10:24:58Z</time>
      </trkpt>
      <trkpt lat="44.5272" lon="6.3344">
        <ele>789.869</ele>
        <time>2024-03-25T10:25:53Z</time>
      </trkpt>
      <trkpt lat="44.52728" lon="6.33491">
        <ele>805.204</ele>
        <time>2024-03-25T10:26:47Z</time>
      </trkpt>
      <trkpt lat="44.52736" lon="6.33511">
        <ele>808.347</ele>
        <time>2024-03-25T10:27:41Z</time>
      </trkpt>
      <trkpt lat="44.52764" lon="6.33459">
        <ele>804.97</ele>
        <time>2024-03-25T10:28:36Z</time>
      </trkpt>
      <trkpt lat="44.5278" lon="6.3343">
        <ele>800.67</ele>
        <time>2024-03-25T10:29:30Z</time>
      </trkpt>
      <trkpt lat="44.52834" lon="6.33396">
        <ele>801.438</ele>
        <time>2024-03-25T10:30:24Z</time>
      </trkpt>
      <trkpt lat="44.52855" lon="6.33415">
        <ele>803.837</ele>
        <time>2024-03-25T10:31:18Z</time>
      </trkpt>
      <trkpt lat="44.52868" lon="6.33397">
        <ele>792.007</ele>
        <time>2024-03-25T10:32:13Z</time>
      </trkpt>
      <trkpt lat="44.52875" lon="6.33393">
        <ele>793.609</ele>
        <time>2024-03-25T10:33:07Z</time>
      </trkpt>
      <trkpt lat="44.52884" lon="6.33389">
        <ele>789.111</ele>
        <time>2024-03-25T10:34:02Z</time>
      </trkpt>
      <trkpt lat="44.5289" lon="6.33378">
        <ele>790.386</ele>
        <time>2024-03-25T10:34:57Z</time>
      </trkpt>
      <trkpt lat="44.52894" lon="6.33365">
        <ele>791.372</ele>
        <time>2024-03-25T10:35:51Z</time>
      </trkpt>
      <trkpt lat="44.52895" lon="6.33361">
        <ele>794.559</ele>
        <time>2024-03-25T10:36:46Z</time>
      </trkpt>
      <trkpt lat="44.52882" lon="6.33311">
        <ele>798.617</ele>
        <time>2024-03-25T10:37:41Z</time>
      </trkpt>
      <trkpt lat="44.52871" lon="6.33293">
        <ele>794.132</ele>
        <time>2024-03-25T10:38:35Z</time>
      </trkpt>
      <trkpt lat="44.52876" lon="6.33282">
        <ele>798.914</ele>
        <time>2024-03-25T10:39:30Z</time>
      </trkpt>
      <trkpt lat="44.52876" lon="6.33276">
        <ele>798.982</ele>
        <time>2024-03-25T10:40:24Z</time>
      </trkpt>
      <trkpt lat="44.52875" lon="6.33269">
        <ele>792.42</ele>
        <time>2024-03-25T10:41:19Z</time>
      </trkpt>
      <trkpt lat="44.52868" lon="6.33255">
        <ele>802.536</ele>
        <time>2024-03-25T10:42:13Z</time>
      </trkpt>
      <trkpt lat="44.52867" lon="6.33254">
        <ele>801.8</ele>
        <time>2012-04-03T07:05:11Z</time>
      </trkpt>
      <trkpt lat="44.52868" lon="6.33243">
        <ele>803.4</ele>
        <time>2012-04-03T07:05:12Z</time>
      </trkpt>
      <trkpt lat="44.52875" lon="6.33239">
        <ele>804.5</ele>
        <time>2012-04-03T07:05:16Z</time>
      </trkpt>
      <trkpt lat="44.52878" lon="6.33242">
        <ele>804.6</ele>
        <time>2012-04-03T07:05:18Z</time>
      </trkpt>
      <trkpt lat="44.52885" lon="6.33249">
        <ele>811.01</ele>
        <time>2012-04-03T07:05:28Z</time>
      </trkpt>
      <trkpt lat="44.52887" lon="6.3325">
        <ele>811.49</ele>
        <time>2012-04-03T07:05:30Z</time>
      </trkpt>
      <trkpt lat="44.52889" lon="6.33249">
        <ele>811.01</ele>
        <time>2012-04-03T07:05:32Z</time>
      </trkpt>
      <trkpt lat="44.52903" lon="6.33249">
        <ele>811.97</ele>
        <time>2012-04-03T07:05:46Z</time>
      </trkpt>
      <trkpt lat="44.52908" lon="6.3325">
        <ele>811.97</ele>
        <time>2012-04-03T07:05:49Z</time>
      </trkpt>
      <trkpt lat="44.52921" lon="6.33251">
        <ele>813.41</ele>
        <time>2012-04-03T07:06:04Z</time>
      </trkpt>
      <trkpt lat="44.52922" lon="6.33251">
        <ele>813.89</ele>
        <time>2012-04-03T07:06:05Z</time>
      </trkpt>
      <trkpt lat="44.52933" lon="6.33252">
        <ele>815.82</ele>
        <time>2012-04-03T07:06:15Z</time>
      </trkpt>
      <trkpt lat="44.52939" lon="6.3325">
        <ele>815.82</ele>
        <time>2012-04-03T07:06:21Z</time>
      </trkpt>
      <trkpt lat="44.52951" lon="6.33243">
        <ele>818.22</ele>
        <time>2012-04-03T07:06:34Z</time>
      </trkpt>
      <trkpt lat="44.52952" lon="6.33243">
        <ele>818.7</ele>
        <time>2012-04-03T07:06:35Z</time>
      </trkpt>
      <trkpt lat="44.52954" lon="6.33242">
        <ele>817.74</ele>
        <time>2012-04-03T07:06:37Z</time>
      </trkpt>
      <trkpt lat="44.52962" lon="6.33237">
        <ele>819.66</ele>
        <time>2012-04-03T07:06:47Z</time>
      </trkpt>
      <trkpt lat="44.52968" lon="6.33233">
        <ele>820.14</ele>
        <time>2012-04-03T07:06:58Z</time>
      </trkpt>
      <trkpt lat="44.52969" lon="6.33233">
        <ele>820.14</ele>
        <time>2012-04-03T07:07:00Z</time>
      </trkpt>
      <trkpt lat="44.52971" lon="6.33239">
        <ele>814.8</ele>
      </trkpt>
      <trkpt lat="44.52978" lon="6.33242">
        <ele>815.5</ele>
        <time>2012-04-03T07:07:05Z</time>
      </trkpt>
      <trkpt lat="44.52986" lon="6.33248">
        <ele>816.5</ele>
        <time>2012-04-03T07:07:13Z</time>
      </trkpt>
      <trkpt lat="44.52994" lon="6.33253">
        <ele>817.2</ele>
        <time>2012-04-03T07:07:28Z</time>
      </trkpt>
      <trkpt lat="44.53005" lon="6.3324">
        <ele>817.6</ele>
      </trkpt>
      <trkpt lat="44.53011" lon="6.33227">
        <ele>817.2</ele>
        <time>2012-04-03T07:07:40Z</time>
      </trkpt>
      <trkpt lat="44.53017" lon="6.3322">
        <ele>817</ele>
      </trkpt>
      <trkpt lat="44.53022" lon="6.33216">
        <ele>817</ele>
        <time>2012-04-03T07:07:47Z</time>
      </trkpt>
      <trkpt lat="44.53025" lon="6.33209">
        <ele>816.9</ele>
        <time>2012-04-03T07:08:01Z</time>
      </trkpt>
      <trkpt lat="44.53029" lon="6.33204">
        <ele>817.2</ele>
      </trkpt>
      <trkpt lat="44.53032" lon="6.33194">
        <ele>817.5</ele>
        <time>2012-04-03T07:08:17Z</time>
      </trkpt>
      <trkpt lat="44.53033" lon="6.3319">
        <ele>817.4</ele>
      </trkpt>
      <trkpt lat="44.53036" lon="6.33185">
        <ele>817.5</ele>
      </trkpt>
      <trkpt lat="44.53038" lon="6.33178">
        <ele>817.5</ele>
      </trkpt>
      <trkpt lat="44.53037" lon="6.33179">
        <ele>817.4</ele>
        <time>2012-04-03T07:08:33Z</time>
      </trkpt>
      <trkpt lat="44.53038" lon="6.33173">
        <ele>817.3</ele>
      </trkpt>
      <trkpt lat="44.53036" lon="6.33173">
        <ele>817.1</ele>
      </trkpt>
      <trkpt lat="44.53033" lon="6.33173">
        <ele>816.7</ele>
      </trkpt>
      <trkpt lat="44.53032" lon="6.33173">
        <ele>816.7</ele>
      </trkpt>
      <trkpt lat="44.53031" lon="6.33172">
        <ele>816.5</ele>
      </trkpt>
      <trkpt lat="44.5303" lon="6.33175">
        <ele>816.5</ele>
      </trkpt>
      <trkpt lat="44.53029" lon="6.33177">
        <ele>816.4</ele>
      </trkpt>
      <trkpt lat="44.53028" lon="6.33179">
        <ele>816.5</ele>
      </trkpt>
      <trkpt lat="44.53032" lon="6.3318">
        <ele>816.9</ele>
      </trkpt>
      <trkpt lat="44.53035" lon="6.33181">
        <ele>817.3</ele>
      </trkpt>
      <trkpt lat="44.53039" lon="6.33184">
        <ele>817.8</ele>
        <time>2012-04-03T07:11:23Z</time>
      </trkpt>
      <trkpt lat="44.53042" lon="6.33185">
        <ele>818.2</ele>
      </trkpt>
      <trkpt lat="44.53044" lon="6.33187">
        <ele>818.5</ele>
      </trkpt>
      <trkpt lat="44.53049" lon="6.33188">
        <ele>819</ele>
      </trkpt>
      <trkpt lat="44.53051" lon="6.33189">
        <ele>819.3</ele>
      </trkpt>
      <trkpt lat="44.53055" lon="6.33191">
        <ele>819.8</ele>
      </trkpt>
      <trkpt lat="44.5306" lon="6.33192">
        <ele>822.06</ele>
        <time>2012-04-03T07:11:48Z</time>
      </trkpt>
      <trkpt lat="44.53059" lon="6.332">
        <ele>822.06</ele>
        <time>2012-04-03T07:12:02Z</time>
      </trkpt>
      <trkpt lat="44.53059" lon="6.33204">
        <ele>825.43</ele>
        <time>2012-04-03T07:12:12Z</time>
      </trkpt>
      <trkpt lat="44.53064" lon="6.33209">
        <ele>826.39</ele>
        <time>2012-04-03T07:12:28Z</time>
      </trkpt>
      <trkpt lat="44.53067" lon="6.3322">
        <ele>828.79</ele>
        <time>2012-04-03T07:12:45Z</time>
      </trkpt>
      <trkpt lat="44.53072" lon="6.33228">
        <ele>830.24</ele>
        <time>2012-04-03T07:12:58Z</time>
      </trkpt>
      <trkpt lat="44.53078" lon="6.33238">
        <ele>832.64</ele>
        <time>2012-04-03T07:13:10Z</time>
      </trkpt>
      <trkpt lat="44.53083" lon="6.33243">
        <ele>826.6</ele>
      </trkpt>
      <trkpt lat="44.53084" lon="6.33244">
        <ele>826.9</ele>
      </trkpt>
      <trkpt lat="44.53082" lon="6.33245">
        <ele>833.6</ele>
        <time>2012-04-03T07:13:38Z</time>
      </trkpt>
      <trkpt lat="44.53083" lon="6.3325">
        <ele>834.08</ele>
        <time>2012-04-03T07:19:35Z</time>
      </trkpt>
      <trkpt lat="44.53083" lon="6.3325">
        <ele>833.6</ele>
        <time>2012-04-03T07:20:00Z</time>
      </trkpt>
      <trkpt lat="44.53083" lon="6.3325">
        <ele>833.6</ele>
        <time>2012-04-03T07:20:27Z</time>
      </trkpt>
      <trkpt lat="44.53083" lon="6.3325">
        <ele>833.12</ele>
        <time>2012-04-03T07:21:00Z</time>
      </trkpt>
      <trkpt lat="44.53083" lon="6.33249">
        <ele>833.12</ele>
        <time>2012-04-03T07:21:25Z</time>
      </trkpt>
      <trkpt lat="44.53083" lon="6.33249">
        <ele>833.6</ele>
        <time>2012-04-03T07:21:44Z</time>
      </trkpt>
      <trkpt lat="44.53083" lon="6.33249">
        <ele>833.12</ele>
        <time>2012-04-03T07:22:09Z</time>
      </trkpt>
      <trkpt lat="44.53083" lon="6.33249">
        <ele>833.6</ele>
        <time>2012-04-03T07:22:38Z</time>
      </trkpt>
      <trkpt lat="44.53083" lon="6.33249">
        <ele>833.6</ele>
        <time>2012-04-03T07:23:01Z</time>
      </trkpt>
      <trkpt lat="44.53083" lon="6.33249">
        <ele>833.6</ele>
        <time>2012-04-03T07:23:30Z</time>
      </trkpt>
      <trkpt lat="44.53083" lon="6.33249">
        <ele>834.08</ele>
        <time>2012-04-03T07:23:56Z</time>
      </trkpt>
      <trkpt lat="44.53083" lon="6.3325">
        <ele>833.6</ele>
        <time>2012-04-03T07:24:24Z</time>
      </trkpt>
      <trkpt lat="44.53083" lon="6.3325">
        <ele>833.12</ele>
        <time>2012-04-03T07:24:54Z</time>
      </trkpt>
      <trkpt lat="44.53083" lon="6.3325">
        <ele>829.76</ele>
        <time>2012-04-03T07:24:58Z</time>
      </trkpt>
      <trkpt lat="44.53083" lon="6.3325">
        <ele>834.08</ele>
        <time>2012-04-03T07:24:59Z</time>
      </trkpt>
      <trkpt lat="44.53083" lon="6.3325">
        <ele>831.2</ele>
        <time>2012-04-03T07:25:01Z</time>
      </trkpt>
      <trkpt lat="44.53083" lon="6.33251">
        <ele>835.04</ele>
        <time>2012-04-03T07:25:02Z</time>
      </trkpt>
      <trkpt lat="44.53084" lon="6.33252">
        <ele>833.12</ele>
        <time>2012-04-03T07:25:28Z</time>
      </trkpt>
      <trkpt lat="44.53085" lon="6.33254">
        <ele>836.96</ele>
        <time>2012-04-03T07:25:37Z</time>
      </trkpt>
      <trkpt lat="44.53085" lon="6.33254">
        <ele>830.72</ele>
        <time>2012-04-03T07:25:38Z</time>
      </trkpt>
      <trkpt lat="44.53086" lon="6.33255">
        <ele>836</ele>
        <time>2012-04-03T07:25:39Z</time>
      </trkpt>
      <trkpt lat="44.53087" lon="6.3326">
        <ele>832.64</ele>
        <time>2012-04-03T07:25:47Z</time>
      </trkpt>
      <trkpt lat="44.53088" lon="6.33262">
        <ele>838.89</ele>
        <time>2012-04-03T07:25:49Z</time>
      </trkpt>
      <trkpt lat="44.53089" lon="6.33263">
        <ele>832.64</ele>
        <time>2012-04-03T07:25:50Z</time>
      </trkpt>
      <trkpt lat="44.53089" lon="6.33264">
        <ele>838.41</ele>
        <time>2012-04-03T07:25:51Z</time>
      </trkpt>
      <trkpt lat="44.5309" lon="6.33265">
        <ele>832.16</ele>
        <time>2012-04-03T07:25:52Z</time>
      </trkpt>
      <trkpt lat="44.5309" lon="6.33266">
        <ele>837.45</ele>
        <time>2012-04-03T07:25:53Z</time>
      </trkpt>
      <trkpt lat="44.53091" lon="6.33269">
        <ele>838.89</ele>
        <time>2012-04-03T07:25:56Z</time>
      </trkpt>
      <trkpt lat="44.53092" lon="6.33272">
        <ele>836.96</ele>
        <time>2012-04-03T07:25:58Z</time>
      </trkpt>
      <trkpt lat="44.53093" lon="6.33276">
        <ele>840.81</ele>
        <time>2012-04-03T07:26:01Z</time>
      </trkpt>
      <trkpt lat="44.53093" lon="6.33277">
        <ele>834.08</ele>
        <time>2012-04-03T07:26:02Z</time>
      </trkpt>
      <trkpt lat="44.53093" lon="6.33278">
        <ele>839.85</ele>
        <time>2012-04-03T07:26:03Z</time>
      </trkpt>
      <trkpt lat="44.53094" lon="6.3328">
        <ele>833.12</ele>
        <time>2012-04-03T07:26:04Z</time>
      </trkpt>
      <trkpt lat="44.53094" lon="6.33282">
        <ele>834.08</ele>
        <time>2012-04-03T07:26:06Z</time>
      </trkpt>
      <trkpt lat="44.53095" lon="6.33284">
        <ele>840.33</ele>
        <time>2012-04-03T07:26:08Z</time>
      </trkpt>
      <trkpt lat="44.53096" lon="6.33284">
        <ele>835.52</ele>
        <time>2012-04-03T07:26:09Z</time>
      </trkpt>
      <trkpt lat="44.53096" lon="6.33284">
        <ele>838.89</ele>
        <time>2012-04-03T07:26:10Z</time>
      </trkpt>
      <trkpt lat="44.53098" lon="6.33284">
        <ele>835.52</ele>
        <time>2012-04-03T07:26:12Z</time>
      </trkpt>
      <trkpt lat="44.53099" lon="6.33284">
        <ele>842.73</ele>
        <time>2012-04-03T07:26:13Z</time>
      </trkpt>
      <trkpt lat="44.53099" lon="6.33284">
        <ele>833.6</ele>
        <time>2012-04-03T07:26:14Z</time>
      </trkpt>
      <trkpt lat="44.53102" lon="6.33288">
        <ele>836.48</ele>
        <time>2012-04-03T07:26:19Z</time>
      </trkpt>
      <trkpt lat="44.53103" lon="6.33289">
        <ele>842.73</ele>
        <time>2012-04-03T07:26:21Z</time>
      </trkpt>
      <trkpt lat="44.53104" lon="6.33289">
        <ele>837.93</ele>
        <time>2012-04-03T07:26:22Z</time>
      </trkpt>
      <trkpt lat="44.53104" lon="6.3329">
        <ele>843.21</ele>
        <time>2012-04-03T07:26:23Z</time>
      </trkpt>
      <trkpt lat="44.53104" lon="6.3329">
        <ele>836.96</ele>
        <time>2012-04-03T07:26:24Z</time>
      </trkpt>
      <trkpt lat="44.53105" lon="6.33291">
        <ele>842.25</ele>
        <time>2012-04-03T07:26:25Z</time>
      </trkpt>
      <trkpt lat="44.53105" lon="6.33291">
        <ele>837.45</ele>
        <time>2012-04-03T07:26:26Z</time>
      </trkpt>
      <trkpt lat="44.53106" lon="6.33291">
        <ele>840.81</ele>
        <time>2012-04-03T07:26:27Z</time>
      </trkpt>
      <trkpt lat="44.5311" lon="6.33292">
        <ele>837.45</ele>
        <time>2012-04-03T07:26:33Z</time>
      </trkpt>
      <trkpt lat="44.53111" lon="6.33293">
        <ele>842.73</ele>
        <time>2012-04-03T07:26:34Z</time>
      </trkpt>
      <trkpt lat="44.53111" lon="6.33293">
        <ele>838.89</ele>
        <time>2012-04-03T07:26:35Z</time>
      </trkpt>
      <trkpt lat="44.53112" lon="6.33293">
        <ele>842.25</ele>
        <time>2012-04-03T07:26:36Z</time>
      </trkpt>
      <trkpt lat="44.53114" lon="6.33293">
        <ele>846.1</ele>
        <time>2012-04-03T07:26:45Z</time>
      </trkpt>
      <trkpt lat="44.53115" lon="6.33294">
        <ele>839.85</ele>
        <time>2012-04-03T07:26:46Z</time>
      </trkpt>
      <trkpt lat="44.53115" lon="6.33295">
        <ele>844.66</ele>
        <time>2012-04-03T07:26:47Z</time>
      </trkpt>
      <trkpt lat="44.53115" lon="6.33295">
        <ele>838.89</ele>
        <time>2012-04-03T07:26:48Z</time>
      </trkpt>
      <trkpt lat="44.53115" lon="6.33295">
        <ele>844.66</ele>
        <time>2012-04-03T07:26:49Z</time>
      </trkpt>
      <trkpt lat="44.53116" lon="6.33296">
        <ele>841.29</ele>
        <time>2012-04-03T07:26:50Z</time>
      </trkpt>
      <trkpt lat="44.53116" lon="6.33297">
        <ele>844.66</ele>
        <time>2012-04-03T07:26:51Z</time>
      </trkpt>
      <trkpt lat="44.53118" lon="6.33303">
        <ele>849.46</ele>
        <time>2012-04-03T07:26:56Z</time>
      </trkpt>
      <trkpt lat="44.53119" lon="6.33305">
        <ele>842.25</ele>
        <time>2012-04-03T07:26:58Z</time>
      </trkpt>
      <trkpt lat="44.53119" lon="6.33306">
        <ele>848.5</ele>
        <time>2012-04-03T07:26:59Z</time>
      </trkpt>
      <trkpt lat="44.53119" lon="6.33306">
        <ele>841.77</ele>
        <time>2012-04-03T07:27:00Z</time>
      </trkpt>
      <trkpt lat="44.53119" lon="6.33307">
        <ele>847.06</ele>
        <time>2012-04-03T07:27:01Z</time>
      </trkpt>
      <trkpt lat="44.53119" lon="6.33308">
        <ele>841.29</ele>
        <time>2012-04-03T07:27:02Z</time>
      </trkpt>
      <trkpt lat="44.5312" lon="6.33308">
        <ele>846.58</ele>
        <time>2012-04-03T07:27:03Z</time>
      </trkpt>
      <trkpt lat="44.53121" lon="6.3331">
        <ele>850.42</ele>
        <time>2012-04-03T07:27:06Z</time>
      </trkpt>
      <trkpt lat="44.53121" lon="6.3331">
        <ele>840.81</ele>
        <time>2012-04-03T07:27:07Z</time>
      </trkpt>
      <trkpt lat="44.53121" lon="6.3331">
        <ele>846.1</ele>
        <time>2012-04-03T07:27:08Z</time>
      </trkpt>
      <trkpt lat="44.53121" lon="6.3331">
        <ele>849.46</ele>
        <time>2012-04-03T07:27:09Z</time>
      </trkpt>
      <trkpt lat="44.53121" lon="6.3331">
        <ele>843.69</ele>
        <time>2012-04-03T07:27:10Z</time>
      </trkpt>
      <trkpt lat="44.53122" lon="6.33309">
        <ele>852.83</ele>
        <time>2012-04-03T07:27:11Z</time>
      </trkpt>
      <trkpt lat="44.53122" lon="6.33309">
        <ele>841.77</ele>
        <time>2012-04-03T07:27:12Z</time>
      </trkpt>
      <trkpt lat="44.53123" lon="6.3331">
        <ele>851.38</ele>
        <time>2012-04-03T07:27:13Z</time>
      </trkpt>
      <trkpt lat="44.53123" lon="6.3331">
        <ele>842.73</ele>
        <time>2012-04-03T07:27:14Z</time>
      </trkpt>
      <trkpt lat="44.53123" lon="6.33311">
        <ele>849.94</ele>
        <time>2012-04-03T07:27:15Z</time>
      </trkpt>
      <trkpt lat="44.53124" lon="6.33312">
        <ele>843.69</ele>
        <time>2012-04-03T07:27:16Z</time>
      </trkpt>
      <trkpt lat="44.53124" lon="6.33312">
        <ele>849.46</ele>
        <time>2012-04-03T07:27:17Z</time>
      </trkpt>
      <trkpt lat="44.53124" lon="6.33317">
        <ele>846.1</ele>
        <time>2012-04-03T07:27:24Z</time>
      </trkpt>
      <trkpt lat="44.53124" lon="6.33318">
        <ele>853.79</ele>
        <time>2012-04-03T07:27:25Z</time>
      </trkpt>
      <trkpt lat="44.53124" lon="6.33318">
        <ele>845.14</ele>
        <time>2012-04-03T07:27:26Z</time>
      </trkpt>
      <trkpt lat="44.53124" lon="6.33318">
        <ele>852.35</ele>
        <time>2012-04-03T07:27:27Z</time>
      </trkpt>
      <trkpt lat="44.53124" lon="6.33318">
        <ele>846.1</ele>
        <time>2012-04-03T07:27:28Z</time>
      </trkpt>
      <trkpt lat="44.53124" lon="6.33318">
        <ele>850.9</ele>
        <time>2012-04-03T07:27:29Z</time>
      </trkpt>
      <trkpt lat="44.53126" lon="6.33323">
        <ele>847.54</ele>
        <time>2012-04-03T07:27:33Z</time>
      </trkpt>
      <trkpt lat="44.53126" lon="6.33323">
        <ele>851.38</ele>
        <time>2012-04-03T07:27:34Z</time>
      </trkpt>
      <trkpt lat="44.53126" lon="6.33323">
        <ele>848.02</ele>
        <time>2012-04-03T07:27:35Z</time>
      </trkpt>
      <trkpt lat="44.53126" lon="6.33325">
        <ele>851.38</ele>
        <time>2012-04-03T07:27:37Z</time>
      </trkpt>
      <trkpt lat="44.53126" lon="6.33327">
        <ele>854.75</ele>
        <time>2012-04-03T07:27:39Z</time>
      </trkpt>
      <trkpt lat="44.53126" lon="6.33327">
        <ele>848.5</ele>
        <time>2012-04-03T07:27:40Z</time>
      </trkpt>
      <trkpt lat="44.53126" lon="6.33327">
        <ele>856.19</ele>
        <time>2012-04-03T07:27:41Z</time>
      </trkpt>
      <trkpt lat="44.53126" lon="6.33327">
        <ele>848.02</ele>
        <time>2012-04-03T07:27:42Z</time>
      </trkpt>
      <trkpt lat="44.53126" lon="6.33329">
        <ele>855.71</ele>
        <time>2012-04-03T07:27:43Z</time>
      </trkpt>
      <trkpt lat="44.53127" lon="6.3333">
        <ele>847.06</ele>
        <time>2012-04-03T07:27:44Z</time>
      </trkpt>
      <trkpt lat="44.53127" lon="6.3333">
        <ele>850.42</ele>
        <time>2012-04-03T07:27:45Z</time>
      </trkpt>
      <trkpt lat="44.53127" lon="6.33332">
        <ele>855.71</ele>
        <time>2012-04-03T07:27:46Z</time>
      </trkpt>
      <trkpt lat="44.53128" lon="6.33333">
        <ele>849.46</ele>
        <time>2012-04-03T07:27:47Z</time>
      </trkpt>
      <trkpt lat="44.53128" lon="6.33333">
        <ele>856.67</ele>
        <time>2012-04-03T07:27:48Z</time>
      </trkpt>
      <trkpt lat="44.53129" lon="6.33333">
        <ele>850.42</ele>
        <time>2012-04-03T07:27:49Z</time>
      </trkpt>
      <trkpt lat="44.53129" lon="6.33333">
        <ele>856.67</ele>
        <time>2012-04-03T07:27:50Z</time>
      </trkpt>
      <trkpt lat="44.53129" lon="6.33333">
        <ele>848.02</ele>
        <time>2012-04-03T07:27:51Z</time>
      </trkpt>
      <trkpt lat="44.5313" lon="6.33333">
        <ele>857.15</ele>
        <time>2012-04-03T07:27:52Z</time>
      </trkpt>
      <trkpt lat="44.53131" lon="6.33333">
        <ele>849.94</ele>
        <time>2012-04-03T07:27:53Z</time>
      </trkpt>
      <trkpt lat="44.53131" lon="6.33333">
        <ele>855.71</ele>
        <time>2012-04-03T07:27:54Z</time>
      </trkpt>
      <trkpt lat="44.53131" lon="6.33333">
        <ele>849.94</ele>
        <time>2012-04-03T07:27:55Z</time>
      </trkpt>
      <trkpt lat="44.53132" lon="6.33332">
        <ele>856.67</ele>
        <time>2012-04-03T07:27:56Z</time>
      </trkpt>
      <trkpt lat="44.53133" lon="6.33331">
        <ele>851.87</ele>
        <time>2012-04-03T07:27:57Z</time>
      </trkpt>
      <trkpt lat="44.53134" lon="6.3333">
        <ele>857.63</ele>
        <time>2012-04-03T07:27:59Z</time>
      </trkpt>
      <trkpt lat="44.53134" lon="6.33329">
        <ele>850.9</ele>
        <time>2012-04-03T07:28:00Z</time>
      </trkpt>
      <trkpt lat="44.53135" lon="6.33329">
        <ele>855.23</ele>
        <time>2012-04-03T07:28:01Z</time>
      </trkpt>
      <trkpt lat="44.53135" lon="6.33328">
        <ele>851.87</ele>
        <time>2012-04-03T07:28:02Z</time>
      </trkpt>
      <trkpt lat="44.53136" lon="6.33327">
        <ele>855.71</ele>
        <time>2012-04-03T07:28:04Z</time>
      </trkpt>
      <trkpt lat="44.53138" lon="6.33325">
        <ele>852.35</ele>
        <time>2012-04-03T07:28:09Z</time>
      </trkpt>
      <trkpt lat="44.53138" lon="6.33325">
        <ele>858.11</ele>
        <time>2012-04-03T07:28:10Z</time>
      </trkpt>
      <trkpt lat="44.5314" lon="6.33326">
        <ele>853.31</ele>
        <time>2012-04-03T07:28:12Z</time>
      </trkpt>
      <trkpt lat="44.53141" lon="6.33327">
        <ele>859.08</ele>
        <time>2012-04-03T07:28:13Z</time>
      </trkpt>
      <trkpt lat="44.53141" lon="6.33328">
        <ele>850.9</ele>
        <time>2012-04-03T07:28:14Z</time>
      </trkpt>
      <trkpt lat="44.53141" lon="6.33328">
        <ele>859.56</ele>
        <time>2012-04-03T07:28:15Z</time>
      </trkpt>
      <trkpt lat="44.53141" lon="6.33329">
        <ele>850.9</ele>
        <time>2012-04-03T07:28:16Z</time>
      </trkpt>
      <trkpt lat="44.53141" lon="6.3333">
        <ele>858.59</ele>
        <time>2012-04-03T07:28:17Z</time>
      </trkpt>
      <trkpt lat="44.5314" lon="6.33331">
        <ele>851.87</ele>
        <time>2012-04-03T07:28:18Z</time>
      </trkpt>
      <trkpt lat="44.5314" lon="6.33333">
        <ele>858.11</ele>
        <time>2012-04-03T07:28:19Z</time>
      </trkpt>
      <trkpt lat="44.53139" lon="6.33333">
        <ele>853.31</ele>
        <time>2012-04-03T07:28:23Z</time>
      </trkpt>
      <trkpt lat="44.53138" lon="6.33334">
        <ele>858.59</ele>
        <time>2012-04-03T07:28:24Z</time>
      </trkpt>
      <trkpt lat="44.53137" lon="6.33337">
        <ele>854.75</ele>
        <time>2012-04-03T07:28:28Z</time>
      </trkpt>
      <trkpt lat="44.53137" lon="6.33338">
        <ele>860.04</ele>
        <time>2012-04-03T07:28:29Z</time>
      </trkpt>
      <trkpt lat="44.53137" lon="6.33339">
        <ele>853.79</ele>
        <time>2012-04-03T07:28:30Z</time>
      </trkpt>
      <trkpt lat="44.53137" lon="6.3334">
        <ele>860.04</ele>
        <time>2012-04-03T07:28:31Z</time>
      </trkpt>
      <trkpt lat="44.53137" lon="6.33341">
        <ele>855.71</ele>
        <time>2012-04-03T07:28:32Z</time>
      </trkpt>
      <trkpt lat="44.53137" lon="6.33344">
        <ele>861.48</ele>
        <time>2012-04-03T07:28:34Z</time>
      </trkpt>
      <trkpt lat="44.53137" lon="6.33344">
        <ele>854.75</ele>
        <time>2012-04-03T07:28:35Z</time>
      </trkpt>
      <trkpt lat="44.53137" lon="6.33345">
        <ele>858.59</ele>
        <time>2012-04-03T07:28:36Z</time>
      </trkpt>
      <trkpt lat="44.53137" lon="6.33347">
        <ele>861.96</ele>
        <time>2012-04-03T07:28:37Z</time>
      </trkpt>
      <trkpt lat="44.53137" lon="6.33347">
        <ele>855.23</ele>
        <time>2012-04-03T07:28:38Z</time>
      </trkpt>
      <trkpt lat="44.53137" lon="6.33348">
        <ele>862.92</ele>
        <time>2012-04-03T07:28:39Z</time>
      </trkpt>
      <trkpt lat="44.53137" lon="6.33349">
        <ele>855.71</ele>
        <time>2012-04-03T07:28:40Z</time>
      </trkpt>
      <trkpt lat="44.53137" lon="6.3335">
        <ele>860.04</ele>
        <time>2012-04-03T07:28:41Z</time>
      </trkpt>
      <trkpt lat="44.53142" lon="6.33362">
        <ele>858.59</ele>
        <time>2012-04-03T07:28:57Z</time>
      </trkpt>
      <trkpt lat="44.53142" lon="6.33362">
        <ele>862.44</ele>
        <time>2012-04-03T07:28:58Z</time>
      </trkpt>
      <trkpt lat="44.53144" lon="6.33366">
        <ele>866.29</ele>
        <time>2012-04-03T07:29:06Z</time>
      </trkpt>
      <trkpt lat="44.53145" lon="6.33367">
        <ele>861.96</ele>
        <time>2012-04-03T07:29:07Z</time>
      </trkpt>
      <trkpt lat="44.53145" lon="6.33367">
        <ele>865.8</ele>
        <time>2012-04-03T07:29:08Z</time>
      </trkpt>
      <trkpt lat="44.53145" lon="6.33368">
        <ele>861</ele>
        <time>2012-04-03T07:29:09Z</time>
      </trkpt>
      <trkpt lat="44.53145" lon="6.33368">
        <ele>864.36</ele>
        <time>2012-04-03T07:29:10Z</time>
      </trkpt>
      <trkpt lat="44.53149" lon="6.33378">
        <ele>865.8</ele>
        <time>2012-04-03T07:29:22Z</time>
      </trkpt>
      <trkpt lat="44.5315" lon="6.3338">
        <ele>864.84</ele>
        <time>2012-04-03T07:29:24Z</time>
      </trkpt>
      <trkpt lat="44.53152" lon="6.33384">
        <ele>863.4</ele>
        <time>2012-04-03T07:29:29Z</time>
      </trkpt>
      <trkpt lat="44.53152" lon="6.33385">
        <ele>867.25</ele>
        <time>2012-04-03T07:29:30Z</time>
      </trkpt>
      <trkpt lat="44.53153" lon="6.33386">
        <ele>864.36</ele>
        <time>2012-04-03T07:29:34Z</time>
      </trkpt>
      <trkpt lat="44.53154" lon="6.33388">
        <ele>870.13</ele>
        <time>2012-04-03T07:29:36Z</time>
      </trkpt>
      <trkpt lat="44.53154" lon="6.33389">
        <ele>865.32</ele>
        <time>2012-04-03T07:29:37Z</time>
      </trkpt>
      <trkpt lat="44.53154" lon="6.3339">
        <ele>868.69</ele>
        <time>2012-04-03T07:29:38Z</time>
      </trkpt>
      <trkpt lat="44.53156" lon="6.33397">
        <ele>872.05</ele>
        <time>2012-04-03T07:29:46Z</time>
      </trkpt>
      <trkpt lat="44.53156" lon="6.33397">
        <ele>866.77</ele>
        <time>2012-04-03T07:29:47Z</time>
      </trkpt>
      <trkpt lat="44.53157" lon="6.334">
        <ele>871.57</ele>
        <time>2012-04-03T07:29:49Z</time>
      </trkpt>
      <trkpt lat="44.53157" lon="6.33401">
        <ele>866.77</ele>
        <time>2012-04-03T07:29:50Z</time>
      </trkpt>
      <trkpt lat="44.53158" lon="6.33401">
        <ele>870.61</ele>
        <time>2012-04-03T07:29:51Z</time>
      </trkpt>
      <trkpt lat="44.53159" lon="6.33403">
        <ele>866.77</ele>
        <time>2012-04-03T07:29:55Z</time>
      </trkpt>
      <trkpt lat="44.53159" lon="6.33404">
        <ele>873.01</ele>
        <time>2012-04-03T07:29:56Z</time>
      </trkpt>
      <trkpt lat="44.5316" lon="6.33404">
        <ele>868.21</ele>
        <time>2012-04-03T07:29:57Z</time>
      </trkpt>
      <trkpt lat="44.53161" lon="6.33406">
        <ele>872.05</ele>
        <time>2012-04-03T07:29:59Z</time>
      </trkpt>
      <trkpt lat="44.53162" lon="6.33406">
        <ele>868.21</ele>
        <time>2012-04-03T07:30:00Z</time>
      </trkpt>
      <trkpt lat="44.53163" lon="6.33408">
        <ele>875.42</ele>
        <time>2012-04-03T07:30:02Z</time>
      </trkpt>
      <trkpt lat="44.53163" lon="6.33408">
        <ele>867.73</ele>
        <time>2012-04-03T07:30:03Z</time>
      </trkpt>
      <trkpt lat="44.53163" lon="6.33408">
        <ele>873.5</ele>
        <time>2012-04-03T07:30:04Z</time>
      </trkpt>
      <trkpt lat="44.53163" lon="6.33409">
        <ele>868.21</ele>
        <time>2012-04-03T07:30:05Z</time>
      </trkpt>
      <trkpt lat="44.53163" lon="6.3341">
        <ele>872.05</ele>
        <time>2012-04-03T07:30:06Z</time>
      </trkpt>
      <trkpt lat="44.53163" lon="6.3341">
        <ele>868.69</ele>
        <time>2012-04-03T07:30:08Z</time>
      </trkpt>
      <trkpt lat="44.53163" lon="6.3341">
        <ele>876.86</ele>
        <time>2012-04-03T07:30:09Z</time>
      </trkpt>
      <trkpt lat="44.53164" lon="6.33411">
        <ele>873.98</ele>
        <time>2012-04-03T07:30:10Z</time>
      </trkpt>
      <trkpt lat="44.53164" lon="6.33411">
        <ele>871.09</ele>
        <time>2012-04-03T07:30:11Z</time>
      </trkpt>
      <trkpt lat="44.53165" lon="6.33412">
        <ele>876.38</ele>
        <time>2012-04-03T07:30:12Z</time>
      </trkpt>
      <trkpt lat="44.53165" lon="6.33412">
        <ele>869.17</ele>
        <time>2012-04-03T07:30:13Z</time>
      </trkpt>
      <trkpt lat="44.53166" lon="6.33415">
        <ele>877.82</ele>
        <time>2012-04-03T07:30:17Z</time>
      </trkpt>
      <trkpt lat="44.53167" lon="6.33415">
        <ele>870.61</ele>
        <time>2012-04-03T07:30:18Z</time>
      </trkpt>
      <trkpt lat="44.53167" lon="6.33416">
        <ele>875.9</ele>
        <time>2012-04-03T07:30:19Z</time>
      </trkpt>
      <trkpt lat="44.53168" lon="6.33416">
        <ele>868.69</ele>
        <time>2012-04-03T07:30:20Z</time>
      </trkpt>
      <trkpt lat="44.53168" lon="6.33417">
        <ele>878.78</ele>
        <time>2012-04-03T07:30:22Z</time>
      </trkpt>
      <trkpt lat="44.53168" lon="6.33418">
        <ele>868.69</ele>
        <time>2012-04-03T07:30:23Z</time>
      </trkpt>
      <trkpt lat="44.53168" lon="6.33419">
        <ele>879.74</ele>
        <time>2012-04-03T07:30:24Z</time>
      </trkpt>
      <trkpt lat="44.53168" lon="6.33419">
        <ele>871.57</ele>
        <time>2012-04-03T07:30:25Z</time>
      </trkpt>
      <trkpt lat="44.53168" lon="6.3342">
        <ele>875.9</ele>
        <time>2012-04-03T07:30:26Z</time>
      </trkpt>
      <trkpt lat="44.53168" lon="6.33421">
        <ele>871.09</ele>
        <time>2012-04-03T07:30:27Z</time>
      </trkpt>
      <trkpt lat="44.53168" lon="6.33422">
        <ele>876.86</ele>
        <time>2012-04-03T07:30:28Z</time>
      </trkpt>
      <trkpt lat="44.53168" lon="6.33423">
        <ele>872.05</ele>
        <time>2012-04-03T07:30:29Z</time>
      </trkpt>
      <trkpt lat="44.53168" lon="6.33423">
        <ele>877.34</ele>
        <time>2012-04-03T07:30:30Z</time>
      </trkpt>
      <trkpt lat="44.53167" lon="6.33423">
        <ele>873.5</ele>
        <time>2012-04-03T07:30:31Z</time>
      </trkpt>
      <trkpt lat="44.53167" lon="6.33425">
        <ele>873.01</ele>
        <time>2012-04-03T07:30:33Z</time>
      </trkpt>
      <trkpt lat="44.53167" lon="6.33428">
        <ele>880.22</ele>
        <time>2012-04-03T07:30:35Z</time>
      </trkpt>
      <trkpt lat="44.53166" lon="6.33429">
        <ele>881.19</ele>
        <time>2012-04-03T07:30:37Z</time>
      </trkpt>
      <trkpt lat="44.53166" lon="6.3343">
        <ele>872.53</ele>
        <time>2012-04-03T07:30:38Z</time>
      </trkpt>
      <trkpt lat="44.53166" lon="6.33431">
        <ele>881.67</ele>
        <time>2012-04-03T07:30:39Z</time>
      </trkpt>
      <trkpt lat="44.53166" lon="6.33431">
        <ele>873.01</ele>
        <time>2012-04-03T07:30:40Z</time>
      </trkpt>
      <trkpt lat="44.53166" lon="6.33432">
        <ele>881.19</ele>
        <time>2012-04-03T07:30:41Z</time>
      </trkpt>
      <trkpt lat="44.53166" lon="6.33432">
        <ele>873.01</ele>
        <time>2012-04-03T07:30:42Z</time>
      </trkpt>
      <trkpt lat="44.53167" lon="6.33432">
        <ele>881.19</ele>
        <time>2012-04-03T07:30:43Z</time>
      </trkpt>
      <trkpt lat="44.53168" lon="6.33433">
        <ele>873.01</ele>
        <time>2012-04-03T07:30:44Z</time>
      </trkpt>
      <trkpt lat="44.53168" lon="6.33433">
        <ele>880.22</ele>
        <time>2012-04-03T07:30:45Z</time>
      </trkpt>
      <trkpt lat="44.53168" lon="6.33434">
        <ele>875.9</ele>
        <time>2012-04-03T07:30:47Z</time>
      </trkpt>
      <trkpt lat="44.53169" lon="6.33434">
        <ele>882.15</ele>
        <time>2012-04-03T07:30:48Z</time>
      </trkpt>
      <trkpt lat="44.53169" lon="6.33435">
        <ele>874.46</ele>
        <time>2012-04-03T07:30:49Z</time>
      </trkpt>
      <trkpt lat="44.53169" lon="6.33436">
        <ele>883.59</ele>
        <time>2012-04-03T07:30:50Z</time>
      </trkpt>
      <trkpt lat="44.53169" lon="6.33436">
        <ele>873.98</ele>
        <time>2012-04-03T07:30:51Z</time>
      </trkpt>
      <trkpt lat="44.53169" lon="6.33437">
        <ele>883.11</ele>
        <time>2012-04-03T07:30:52Z</time>
      </trkpt>
      <trkpt lat="44.53169" lon="6.33437">
        <ele>874.46</ele>
        <time>2012-04-03T07:30:53Z</time>
      </trkpt>
      <trkpt lat="44.53169" lon="6.33437">
        <ele>884.07</ele>
        <time>2012-04-03T07:30:54Z</time>
      </trkpt>
      <trkpt lat="44.53169" lon="6.33437">
        <ele>873.98</ele>
        <time>2012-04-03T07:30:55Z</time>
      </trkpt>
      <trkpt lat="44.53169" lon="6.33437">
        <ele>883.59</ele>
        <time>2012-04-03T07:30:56Z</time>
      </trkpt>
      <trkpt lat="44.53169" lon="6.33437">
        <ele>879.74</ele>
        <time>2012-04-03T07:30:58Z</time>
      </trkpt>
      <trkpt lat="44.53169" lon="6.33437">
        <ele>883.11</ele>
        <time>2012-04-03T07:30:59Z</time>
      </trkpt>
      <trkpt lat="44.53169" lon="6.33437">
        <ele>878.78</ele>
        <time>2012-04-03T07:31:00Z</time>
      </trkpt>
      <trkpt lat="44.53169" lon="6.33437">
        <ele>885.51</ele>
        <time>2012-04-03T07:31:01Z</time>
      </trkpt>
      <trkpt lat="44.53169" lon="6.33437">
        <ele>877.34</ele>
        <time>2012-04-03T07:31:02Z</time>
      </trkpt>
      <trkpt lat="44.53169" lon="6.33437">
        <ele>885.03</ele>
        <time>2012-04-03T07:31:03Z</time>
      </trkpt>
      <trkpt lat="44.53169" lon="6.33437">
        <ele>877.34</ele>
        <time>2012-04-03T07:31:04Z</time>
      </trkpt>
      <trkpt lat="44.53169" lon="6.33437">
        <ele>882.63</ele>
        <time>2012-04-03T07:31:05Z</time>
      </trkpt>
      <trkpt lat="44.53169" lon="6.33437">
        <ele>876.86</ele>
        <time>2012-04-03T07:31:06Z</time>
      </trkpt>
      <trkpt lat="44.53169" lon="6.33437">
        <ele>882.15</ele>
        <time>2012-04-03T07:31:07Z</time>
      </trkpt>
      <trkpt lat="44.5317" lon="6.33442">
        <ele>878.3</ele>
        <time>2012-04-03T07:31:11Z</time>
      </trkpt>
      <trkpt lat="44.5317" lon="6.33443">
        <ele>883.59</ele>
        <time>2012-04-03T07:31:12Z</time>
      </trkpt>
      <trkpt lat="44.5317" lon="6.33443">
        <ele>878.78</ele>
        <time>2012-04-03T07:31:13Z</time>
      </trkpt>
      <trkpt lat="44.5317" lon="6.33443">
        <ele>884.07</ele>
        <time>2012-04-03T07:31:14Z</time>
      </trkpt>
      <trkpt lat="44.53171" lon="6.33444">
        <ele>877.82</ele>
        <time>2012-04-03T07:31:15Z</time>
      </trkpt>
      <trkpt lat="44.53171" lon="6.33445">
        <ele>883.59</ele>
        <time>2012-04-03T07:31:16Z</time>
      </trkpt>
      <trkpt lat="44.53172" lon="6.33452">
        <ele>879.74</ele>
        <time>2012-04-03T07:31:22Z</time>
      </trkpt>
      <trkpt lat="44.53171" lon="6.33454">
        <ele>884.07</ele>
        <time>2012-04-03T07:31:23Z</time>
      </trkpt>
      <trkpt lat="44.5317" lon="6.33456">
        <ele>880.22</ele>
        <time>2012-04-03T07:31:26Z</time>
      </trkpt>
      <trkpt lat="44.5317" lon="6.33456">
        <ele>885.03</ele>
        <time>2012-04-03T07:31:27Z</time>
      </trkpt>
      <trkpt lat="44.5317" lon="6.33456">
        <ele>880.71</ele>
        <time>2012-04-03T07:31:28Z</time>
      </trkpt>
      <trkpt lat="44.53169" lon="6.33457">
        <ele>885.99</ele>
        <time>2012-04-03T07:31:29Z</time>
      </trkpt>
      <trkpt lat="44.53168" lon="6.33458">
        <ele>881.67</ele>
        <time>2012-04-03T07:31:30Z</time>
      </trkpt>
      <trkpt lat="44.53166" lon="6.33459">
        <ele>879.74</ele>
        <time>2012-04-03T07:31:34Z</time>
      </trkpt>
      <trkpt lat="44.53165" lon="6.33459">
        <ele>883.11</ele>
        <time>2012-04-03T07:31:35Z</time>
      </trkpt>
      <trkpt lat="44.53164" lon="6.33459">
        <ele>887.43</ele>
        <time>2012-04-03T07:31:36Z</time>
      </trkpt>
      <trkpt lat="44.53164" lon="6.33459">
        <ele>883.59</ele>
        <time>2012-04-03T07:31:37Z</time>
      </trkpt>
      <trkpt lat="44.53164" lon="6.33459">
        <ele>887.43</ele>
        <time>2012-04-03T07:31:38Z</time>
      </trkpt>
      <trkpt lat="44.53163" lon="6.33458">
        <ele>883.11</ele>
        <time>2012-04-03T07:31:39Z</time>
      </trkpt>
      <trkpt lat="44.53163" lon="6.33458">
        <ele>887.91</ele>
        <time>2012-04-03T07:31:40Z</time>
      </trkpt>
      <trkpt lat="44.53163" lon="6.33458">
        <ele>881.67</ele>
        <time>2012-04-03T07:31:41Z</time>
      </trkpt>
      <trkpt lat="44.53163" lon="6.33458">
        <ele>888.4</ele>
        <time>2012-04-03T07:31:42Z</time>
      </trkpt>
      <trkpt lat="44.53163" lon="6.33458">
        <ele>880.71</ele>
        <time>2012-04-03T07:31:43Z</time>
      </trkpt>
      <trkpt lat="44.53162" lon="6.33459">
        <ele>886.95</ele>
        <time>2012-04-03T07:31:44Z</time>
      </trkpt>
      <trkpt lat="44.53161" lon="6.3346">
        <ele>882.15</ele>
        <time>2012-04-03T07:31:45Z</time>
      </trkpt>
      <trkpt lat="44.5316" lon="6.33461">
        <ele>890.32</ele>
        <time>2012-04-03T07:31:47Z</time>
      </trkpt>
      <trkpt lat="44.5316" lon="6.33461">
        <ele>882.63</ele>
        <time>2012-04-03T07:31:48Z</time>
      </trkpt>
      <trkpt lat="44.5316" lon="6.33461">
        <ele>888.4</ele>
        <time>2012-04-03T07:31:49Z</time>
      </trkpt>
      <trkpt lat="44.5316" lon="6.33461">
        <ele>881.67</ele>
        <time>2012-04-03T07:31:50Z</time>
      </trkpt>
      <trkpt lat="44.53159" lon="6.33462">
        <ele>886.47</ele>
        <time>2012-04-03T07:31:51Z</time>
      </trkpt>
      <trkpt lat="44.53158" lon="6.33463">
        <ele>881.67</ele>
        <time>2012-04-03T07:31:52Z</time>
      </trkpt>
      <trkpt lat="44.53158" lon="6.33468">
        <ele>884.07</ele>
        <time>2012-04-03T07:31:57Z</time>
      </trkpt>
      <trkpt lat="44.53156" lon="6.33471">
        <ele>882.63</ele>
        <time>2012-04-03T07:32:00Z</time>
      </trkpt>
      <trkpt lat="44.53155" lon="6.33471">
        <ele>889.84</ele>
        <time>2012-04-03T07:32:01Z</time>
      </trkpt>
      <trkpt lat="44.53155" lon="6.33472">
        <ele>883.59</ele>
        <time>2012-04-03T07:32:02Z</time>
      </trkpt>
      <trkpt lat="44.53154" lon="6.33473">
        <ele>888.4</ele>
        <time>2012-04-03T07:32:03Z</time>
      </trkpt>
      <trkpt lat="44.53154" lon="6.33474">
        <ele>883.11</ele>
        <time>2012-04-03T07:32:04Z</time>
      </trkpt>
      <trkpt lat="44.53153" lon="6.33476">
        <ele>883.11</ele>
        <time>2012-04-03T07:32:06Z</time>
      </trkpt>
      <trkpt lat="44.53153" lon="6.33476">
        <ele>888.88</ele>
        <time>2012-04-03T07:32:08Z</time>
      </trkpt>
      <trkpt lat="44.53153" lon="6.33476">
        <ele>883.59</ele>
        <time>2012-04-03T07:32:09Z</time>
      </trkpt>
      <trkpt lat="44.53152" lon="6.33476">
        <ele>888.4</ele>
        <time>2012-04-03T07:32:10Z</time>
      </trkpt>
      <trkpt lat="44.53151" lon="6.33479">
        <ele>892.72</ele>
        <time>2012-04-03T07:32:15Z</time>
      </trkpt>
      <trkpt lat="44.53151" lon="6.3348">
        <ele>884.07</ele>
        <time>2012-04-03T07:32:16Z</time>
      </trkpt>
      <trkpt lat="44.5315" lon="6.33481">
        <ele>890.8</ele>
        <time>2012-04-03T07:32:17Z</time>
      </trkpt>
      <trkpt lat="44.53149" lon="6.33481">
        <ele>885.03</ele>
        <time>2012-04-03T07:32:18Z</time>
      </trkpt>
      <trkpt lat="44.53149" lon="6.33482">
        <ele>890.32</ele>
        <time>2012-04-03T07:32:19Z</time>
      </trkpt>
      <trkpt lat="44.53148" lon="6.33483">
        <ele>890.32</ele>
        <time>2012-04-03T07:32:20Z</time>
      </trkpt>
      <trkpt lat="44.53148" lon="6.33484">
        <ele>893.68</ele>
        <time>2012-04-03T07:32:22Z</time>
      </trkpt>
      <trkpt lat="44.53147" lon="6.33485">
        <ele>886.47</ele>
        <time>2012-04-03T07:32:23Z</time>
      </trkpt>
      <trkpt lat="44.53146" lon="6.33486">
        <ele>891.76</ele>
        <time>2012-04-03T07:32:24Z</time>
      </trkpt>
      <trkpt lat="44.53146" lon="6.33486">
        <ele>885.03</ele>
        <time>2012-04-03T07:32:25Z</time>
      </trkpt>
      <trkpt lat="44.53145" lon="6.33487">
        <ele>892.24</ele>
        <time>2012-04-03T07:32:26Z</time>
      </trkpt>
      <trkpt lat="44.53144" lon="6.33488">
        <ele>885.51</ele>
        <time>2012-04-03T07:32:27Z</time>
      </trkpt>
      <trkpt lat="44.53143" lon="6.33489">
        <ele>889.84</ele>
        <time>2012-04-03T07:32:28Z</time>
      </trkpt>
      <trkpt lat="44.53143" lon="6.33489">
        <ele>886.95</ele>
        <time>2012-04-03T07:32:29Z</time>
      </trkpt>
      <trkpt lat="44.53143" lon="6.33489">
        <ele>889.84</ele>
        <time>2012-04-03T07:32:30Z</time>
      </trkpt>
      <trkpt lat="44.53142" lon="6.33489">
        <ele>886.47</ele>
        <time>2012-04-03T07:32:32Z</time>
      </trkpt>
      <trkpt lat="44.53142" lon="6.33489">
        <ele>892.24</ele>
        <time>2012-04-03T07:32:33Z</time>
      </trkpt>
      <trkpt lat="44.53142" lon="6.33491">
        <ele>885.99</ele>
        <time>2012-04-03T07:32:34Z</time>
      </trkpt>
      <trkpt lat="44.53142" lon="6.33492">
        <ele>891.76</ele>
        <time>2012-04-03T07:32:35Z</time>
      </trkpt>
      <trkpt lat="44.53142" lon="6.33497">
        <ele>886.95</ele>
        <time>2012-04-03T07:32:41Z</time>
      </trkpt>
      <trkpt lat="44.53143" lon="6.33499">
        <ele>896.09</ele>
        <time>2012-04-03T07:32:42Z</time>
      </trkpt>
      <trkpt lat="44.53144" lon="6.33499">
        <ele>886.95</ele>
        <time>2012-04-03T07:32:43Z</time>
      </trkpt>
      <trkpt lat="44.53144" lon="6.33498">
        <ele>891.28</ele>
        <time>2012-04-03T07:32:44Z</time>
      </trkpt>
      <trkpt lat="44.53146" lon="6.33493">
        <ele>894.64</ele>
        <time>2012-04-03T07:32:53Z</time>
      </trkpt>
      <trkpt lat="44.53147" lon="6.33493">
        <ele>889.84</ele>
        <time>2012-04-03T07:32:54Z</time>
      </trkpt>
      <trkpt lat="44.53148" lon="6.33492">
        <ele>896.57</ele>
        <time>2012-04-03T07:32:55Z</time>
      </trkpt>
      <trkpt lat="44.53148" lon="6.33491">
        <ele>892.72</ele>
        <time>2012-04-03T07:32:56Z</time>
      </trkpt>
      <trkpt lat="44.53151" lon="6.33491">
        <ele>895.61</ele>
        <time>2012-04-03T07:33:00Z</time>
      </trkpt>
      <trkpt lat="44.53152" lon="6.3349">
        <ele>891.28</ele>
        <time>2012-04-03T07:33:01Z</time>
      </trkpt>
      <trkpt lat="44.53153" lon="6.3349">
        <ele>897.05</ele>
        <time>2012-04-03T07:33:02Z</time>
      </trkpt>
      <trkpt lat="44.53153" lon="6.3349">
        <ele>889.36</ele>
        <time>2012-04-03T07:33:03Z</time>
      </trkpt>
      <trkpt lat="44.53153" lon="6.3349">
        <ele>897.05</ele>
        <time>2012-04-03T07:33:04Z</time>
      </trkpt>
      <trkpt lat="44.53153" lon="6.33491">
        <ele>892.24</ele>
        <time>2012-04-03T07:33:05Z</time>
      </trkpt>
      <trkpt lat="44.53153" lon="6.33491">
        <ele>896.57</ele>
        <time>2012-04-03T07:33:11Z</time>
      </trkpt>
      <trkpt lat="44.53154" lon="6.33491">
        <ele>890.8</ele>
        <time>2012-04-03T07:33:12Z</time>
      </trkpt>
      <trkpt lat="44.53154" lon="6.33491">
        <ele>896.57</ele>
        <time>2012-04-03T07:33:13Z</time>
      </trkpt>
      <trkpt lat="44.53155" lon="6.3349">
        <ele>890.32</ele>
        <time>2012-04-03T07:33:14Z</time>
      </trkpt>
      <trkpt lat="44.53155" lon="6.3349">
        <ele>897.05</ele>
        <time>2012-04-03T07:33:15Z</time>
      </trkpt>
      <trkpt lat="44.53156" lon="6.3349">
        <ele>892.24</ele>
        <time>2012-04-03T07:33:16Z</time>
      </trkpt>
      <trkpt lat="44.53156" lon="6.3349">
        <ele>896.57</ele>
        <time>2012-04-03T07:33:17Z</time>
      </trkpt>
      <trkpt lat="44.53157" lon="6.3349">
        <ele>891.28</ele>
        <time>2012-04-03T07:33:18Z</time>
      </trkpt>
      <trkpt lat="44.53158" lon="6.3349">
        <ele>898.01</ele>
        <time>2012-04-03T07:33:19Z</time>
      </trkpt>
      <trkpt lat="44.53158" lon="6.3349">
        <ele>893.68</ele>
        <time>2012-04-03T07:33:20Z</time>
      </trkpt>
      <trkpt lat="44.53161" lon="6.33492">
        <ele>897.53</ele>
        <time>2012-04-03T07:33:24Z</time>
      </trkpt>
      <trkpt lat="44.53161" lon="6.33492">
        <ele>892.24</ele>
        <time>2012-04-03T07:33:25Z</time>
      </trkpt>
      <trkpt lat="44.53162" lon="6.33492">
        <ele>898.97</ele>
        <time>2012-04-03T07:33:26Z</time>
      </trkpt>
      <trkpt lat="44.53163" lon="6.33492">
        <ele>891.76</ele>
        <time>2012-04-03T07:33:27Z</time>
      </trkpt>
      <trkpt lat="44.53164" lon="6.33493">
        <ele>898.01</ele>
        <time>2012-04-03T07:33:28Z</time>
      </trkpt>
      <trkpt lat="44.53165" lon="6.33493">
        <ele>891.76</ele>
        <time>2012-04-03T07:33:29Z</time>
      </trkpt>
      <trkpt lat="44.53165" lon="6.33493">
        <ele>896.09</ele>
        <time>2012-04-03T07:33:30Z</time>
      </trkpt>
      <trkpt lat="44.53165" lon="6.33494">
        <ele>892.72</ele>
        <time>2012-04-03T07:33:32Z</time>
      </trkpt>
      <trkpt lat="44.53166" lon="6.33495">
        <ele>897.05</ele>
        <time>2012-04-03T07:33:33Z</time>
      </trkpt>
      <trkpt lat="44.53166" lon="6.33495">
        <ele>892.72</ele>
        <time>2012-04-03T07:33:34Z</time>
      </trkpt>
      <trkpt lat="44.53166" lon="6.33495">
        <ele>896.57</ele>
        <time>2012-04-03T07:33:35Z</time>
      </trkpt>
      <trkpt lat="44.53167" lon="6.33493">
        <ele>895.12</ele>
        <time>2012-04-03T07:33:47Z</time>
      </trkpt>
      <trkpt lat="44.53167" lon="6.33493">
        <ele>895.12</ele>
        <time>2012-04-03T07:34:13Z</time>
      </trkpt>
      <trkpt lat="44.53167" lon="6.33494">
        <ele>895.61</ele>
        <time>2012-04-03T07:34:31Z</time>
      </trkpt>
      <trkpt lat="44.53167" lon="6.33493">
        <ele>896.57</ele>
        <time>2012-04-03T07:34:41Z</time>
      </trkpt>
      <trkpt lat="44.53168" lon="6.33493">
        <ele>895.61</ele>
        <time>2012-04-03T07:35:00Z</time>
      </trkpt>
      <trkpt lat="44.53168" lon="6.33493">
        <ele>896.09</ele>
        <time>2012-04-03T07:35:27Z</time>
      </trkpt>
      <trkpt lat="44.53168" lon="6.33493">
        <ele>899.93</ele>
        <time>2012-04-03T07:35:50Z</time>
      </trkpt>
      <trkpt lat="44.53168" lon="6.33493">
        <ele>895.61</ele>
        <time>2012-04-03T07:35:51Z</time>
      </trkpt>
      <trkpt lat="44.53168" lon="6.33493">
        <ele>896.57</ele>
        <time>2012-04-03T07:36:03Z</time>
      </trkpt>
      <trkpt lat="44.53167" lon="6.33492">
        <ele>895.12</ele>
        <time>2012-04-03T07:36:24Z</time>
      </trkpt>
      <trkpt lat="44.53167" lon="6.33492">
        <ele>895.12</ele>
        <time>2012-04-03T07:36:52Z</time>
      </trkpt>
      <trkpt lat="44.53167" lon="6.33492">
        <ele>899.45</ele>
        <time>2012-04-03T07:36:58Z</time>
      </trkpt>
      <trkpt lat="44.53167" lon="6.33492">
        <ele>894.64</ele>
        <time>2012-04-03T07:36:59Z</time>
      </trkpt>
      <trkpt lat="44.53167" lon="6.33493">
        <ele>898.97</ele>
        <time>2012-04-03T07:37:00Z</time>
      </trkpt>
      <trkpt lat="44.53167" lon="6.33493">
        <ele>894.64</ele>
        <time>2012-04-03T07:37:01Z</time>
      </trkpt>
      <trkpt lat="44.53172" lon="6.33498">
        <ele>900.41</ele>
        <time>2012-04-03T07:37:09Z</time>
      </trkpt>
      <trkpt lat="44.53172" lon="6.33498">
        <ele>892.72</ele>
        <time>2012-04-03T07:37:10Z</time>
      </trkpt>
      <trkpt lat="44.53172" lon="6.33498">
        <ele>898.49</ele>
        <time>2012-04-03T07:37:11Z</time>
      </trkpt>
      <trkpt lat="44.53174" lon="6.335">
        <ele>895.12</ele>
        <time>2012-04-03T07:37:15Z</time>
      </trkpt>
      <trkpt lat="44.53175" lon="6.33501">
        <ele>900.89</ele>
        <time>2012-04-03T07:37:16Z</time>
      </trkpt>
      <trkpt lat="44.53176" lon="6.33502">
        <ele>894.16</ele>
        <time>2012-04-03T07:37:17Z</time>
      </trkpt>
      <trkpt lat="44.53176" lon="6.33503">
        <ele>898.97</ele>
        <time>2012-04-03T07:37:18Z</time>
      </trkpt>
      <trkpt lat="44.53178" lon="6.33509">
        <ele>895.61</ele>
        <time>2012-04-03T07:37:25Z</time>
      </trkpt>
      <trkpt lat="44.53178" lon="6.33509">
        <ele>903.3</ele>
        <time>2012-04-03T07:37:26Z</time>
      </trkpt>
      <trkpt lat="44.53178" lon="6.33509">
        <ele>895.12</ele>
        <time>2012-04-03T07:37:27Z</time>
      </trkpt>
      <trkpt lat="44.53178" lon="6.3351">
        <ele>900.89</ele>
        <time>2012-04-03T07:37:28Z</time>
      </trkpt>
      <trkpt lat="44.53179" lon="6.33511">
        <ele>895.61</ele>
        <time>2012-04-03T07:37:29Z</time>
      </trkpt>
      <trkpt lat="44.53179" lon="6.33511">
        <ele>900.41</ele>
        <time>2012-04-03T07:37:30Z</time>
      </trkpt>
      <trkpt lat="44.53179" lon="6.33512">
        <ele>896.57</ele>
        <time>2012-04-03T07:37:31Z</time>
      </trkpt>
      <trkpt lat="44.53178" lon="6.33513">
        <ele>900.41</ele>
        <time>2012-04-03T07:37:32Z</time>
      </trkpt>
      <trkpt lat="44.53178" lon="6.33514">
        <ele>896.57</ele>
        <time>2012-04-03T07:37:34Z</time>
      </trkpt>
      <trkpt lat="44.53179" lon="6.33515">
        <ele>903.3</ele>
        <time>2012-04-03T07:37:35Z</time>
      </trkpt>
      <trkpt lat="44.53179" lon="6.33516">
        <ele>897.53</ele>
        <time>2012-04-03T07:37:36Z</time>
      </trkpt>
      <trkpt lat="44.53179" lon="6.33517">
        <ele>900.89</ele>
        <time>2012-04-03T07:37:37Z</time>
      </trkpt>
      <trkpt lat="44.53181" lon="6.33521">
        <ele>906.18</ele>
        <time>2012-04-03T07:37:42Z</time>
      </trkpt>
      <trkpt lat="44.53181" lon="6.33521">
        <ele>897.05</ele>
        <time>2012-04-03T07:37:43Z</time>
      </trkpt>
      <trkpt lat="44.53181" lon="6.33521">
        <ele>904.74</ele>
        <time>2012-04-03T07:37:44Z</time>
      </trkpt>
      <trkpt lat="44.53181" lon="6.33522">
        <ele>897.05</ele>
        <time>2012-04-03T07:37:45Z</time>
      </trkpt>
      <trkpt lat="44.53181" lon="6.33522">
        <ele>902.33</ele>
        <time>2012-04-03T07:37:46Z</time>
      </trkpt>
      <trkpt lat="44.53181" lon="6.33525">
        <ele>901.37</ele>
        <time>2012-04-03T07:37:49Z</time>
      </trkpt>
      <trkpt lat="44.53179" lon="6.33531">
        <ele>898.97</ele>
        <time>2012-04-03T07:37:55Z</time>
      </trkpt>
      <trkpt lat="44.5318" lon="6.33531">
        <ele>907.62</ele>
        <time>2012-04-03T07:37:56Z</time>
      </trkpt>
      <trkpt lat="44.5318" lon="6.33531">
        <ele>899.45</ele>
        <time>2012-04-03T07:37:57Z</time>
      </trkpt>
      <trkpt lat="44.5318" lon="6.33531">
        <ele>907.62</ele>
        <time>2012-04-03T07:37:58Z</time>
      </trkpt>
      <trkpt lat="44.53181" lon="6.33532">
        <ele>900.41</ele>
        <time>2012-04-03T07:37:59Z</time>
      </trkpt>
      <trkpt lat="44.53181" lon="6.33532">
        <ele>905.22</ele>
        <time>2012-04-03T07:38:00Z</time>
      </trkpt>
      <trkpt lat="44.53181" lon="6.33533">
        <ele>901.85</ele>
        <time>2012-04-03T07:38:01Z</time>
      </trkpt>
      <trkpt lat="44.53181" lon="6.33534">
        <ele>906.18</ele>
        <time>2012-04-03T07:38:02Z</time>
      </trkpt>
      <trkpt lat="44.53181" lon="6.33535">
        <ele>901.37</ele>
        <time>2012-04-03T07:38:03Z</time>
      </trkpt>
      <trkpt lat="44.53181" lon="6.33536">
        <ele>907.62</ele>
        <time>2012-04-03T07:38:04Z</time>
      </trkpt>
      <trkpt lat="44.53181" lon="6.33536">
        <ele>901.37</ele>
        <time>2012-04-03T07:38:05Z</time>
      </trkpt>
      <trkpt lat="44.53181" lon="6.33538">
        <ele>910.03</ele>
        <time>2012-04-03T07:38:07Z</time>
      </trkpt>
      <trkpt lat="44.53181" lon="6.33538">
        <ele>903.78</ele>
        <time>2012-04-03T07:38:08Z</time>
      </trkpt>
      <trkpt lat="44.53181" lon="6.33539">
        <ele>909.06</ele>
        <time>2012-04-03T07:38:09Z</time>
      </trkpt>
      <trkpt lat="44.53181" lon="6.33539">
        <ele>903.78</ele>
        <time>2012-04-03T07:38:10Z</time>
      </trkpt>
      <trkpt lat="44.53181" lon="6.33539">
        <ele>910.99</ele>
        <time>2012-04-03T07:38:11Z</time>
      </trkpt>
      <trkpt lat="44.53181" lon="6.33539">
        <ele>902.82</ele>
        <time>2012-04-03T07:38:12Z</time>
      </trkpt>
      <trkpt lat="44.53181" lon="6.3354">
        <ele>910.99</ele>
        <time>2012-04-03T07:38:13Z</time>
      </trkpt>
      <trkpt lat="44.53181" lon="6.3354">
        <ele>904.26</ele>
        <time>2012-04-03T07:38:14Z</time>
      </trkpt>
      <trkpt lat="44.5318" lon="6.3354">
        <ele>912.43</ele>
        <time>2012-04-03T07:38:15Z</time>
      </trkpt>
      <trkpt lat="44.5318" lon="6.3354">
        <ele>905.22</ele>
        <time>2012-04-03T07:38:16Z</time>
      </trkpt>
      <trkpt lat="44.5318" lon="6.33541">
        <ele>911.47</ele>
        <time>2012-04-03T07:38:17Z</time>
      </trkpt>
      <trkpt lat="44.5318" lon="6.33541">
        <ele>906.18</ele>
        <time>2012-04-03T07:38:18Z</time>
      </trkpt>
      <trkpt lat="44.53179" lon="6.33545">
        <ele>910.03</ele>
        <time>2012-04-03T07:38:22Z</time>
      </trkpt>
      <trkpt lat="44.53178" lon="6.33546">
        <ele>906.66</ele>
        <time>2012-04-03T07:38:23Z</time>
      </trkpt>
      <trkpt lat="44.53178" lon="6.33547">
        <ele>911.47</ele>
        <time>2012-04-03T07:38:24Z</time>
      </trkpt>
      <trkpt lat="44.53178" lon="6.33547">
        <ele>906.18</ele>
        <time>2012-04-03T07:38:25Z</time>
      </trkpt>
      <trkpt lat="44.53178" lon="6.33548">
        <ele>912.91</ele>
        <time>2012-04-03T07:38:26Z</time>
      </trkpt>
      <trkpt lat="44.53178" lon="6.33549">
        <ele>907.62</ele>
        <time>2012-04-03T07:38:27Z</time>
      </trkpt>
      <trkpt lat="44.53177" lon="6.33549">
        <ele>912.43</ele>
        <time>2012-04-03T07:38:28Z</time>
      </trkpt>
      <trkpt lat="44.53177" lon="6.3355">
        <ele>905.7</ele>
        <time>2012-04-03T07:38:29Z</time>
      </trkpt>
      <trkpt lat="44.53177" lon="6.33551">
        <ele>909.06</ele>
        <time>2012-04-03T07:38:30Z</time>
      </trkpt>
      <trkpt lat="44.53176" lon="6.33554">
        <ele>913.39</ele>
        <time>2012-04-03T07:38:33Z</time>
      </trkpt>
      <trkpt lat="44.53176" lon="6.33554">
        <ele>908.1</ele>
        <time>2012-04-03T07:38:34Z</time>
      </trkpt>
      <trkpt lat="44.53176" lon="6.33555">
        <ele>913.39</ele>
        <time>2012-04-03T07:38:35Z</time>
      </trkpt>
      <trkpt lat="44.53176" lon="6.33555">
        <ele>908.1</ele>
        <time>2012-04-03T07:38:36Z</time>
      </trkpt>
      <trkpt lat="44.53176" lon="6.33559">
        <ele>912.43</ele>
        <time>2012-04-03T07:38:40Z</time>
      </trkpt>
      <trkpt lat="44.53176" lon="6.3356">
        <ele>907.14</ele>
        <time>2012-04-03T07:38:41Z</time>
      </trkpt>
      <trkpt lat="44.53175" lon="6.33563">
        <ele>910.99</ele>
        <time>2012-04-03T07:38:43Z</time>
      </trkpt>
      <trkpt lat="44.53174" lon="6.33567">
        <ele>910.99</ele>
        <time>2012-04-03T07:38:46Z</time>
      </trkpt>
      <trkpt lat="44.53174" lon="6.33569">
        <ele>909.06</ele>
        <time>2012-04-03T07:38:48Z</time>
      </trkpt>
      <trkpt lat="44.53177" lon="6.33582">
        <ele>907.14</ele>
        <time>2012-04-03T07:39:00Z</time>
      </trkpt>
      <trkpt lat="44.53178" lon="6.33583">
        <ele>910.99</ele>
        <time>2012-04-03T07:39:01Z</time>
      </trkpt>
      <trkpt lat="44.53178" lon="6.33584">
        <ele>911.47</ele>
        <time>2012-04-03T07:39:02Z</time>
      </trkpt>
      <trkpt lat="44.53183" lon="6.33592">
        <ele>916.75</ele>
        <time>2012-04-03T07:39:15Z</time>
      </trkpt>
      <trkpt lat="44.53183" lon="6.33592">
        <ele>911.47</ele>
        <time>2012-04-03T07:39:16Z</time>
      </trkpt>
      <trkpt lat="44.53187" lon="6.3359">
        <ele>914.83</ele>
        <time>2012-04-03T07:39:20Z</time>
      </trkpt>
      <trkpt lat="44.53188" lon="6.3359">
        <ele>914.35</ele>
        <time>2012-04-03T07:39:21Z</time>
      </trkpt>
      <trkpt lat="44.53192" lon="6.33593">
        <ele>917.24</ele>
        <time>2012-04-03T07:39:26Z</time>
      </trkpt>
      <trkpt lat="44.53193" lon="6.33593">
        <ele>911.95</ele>
        <time>2012-04-03T07:39:27Z</time>
      </trkpt>
      <trkpt lat="44.53194" lon="6.33593">
        <ele>915.31</ele>
        <time>2012-04-03T07:39:29Z</time>
      </trkpt>
      <trkpt lat="44.53194" lon="6.33592">
        <ele>910.99</ele>
        <time>2012-04-03T07:39:30Z</time>
      </trkpt>
      <trkpt lat="44.53195" lon="6.33592">
        <ele>915.79</ele>
        <time>2012-04-03T07:39:31Z</time>
      </trkpt>
      <trkpt lat="44.53197" lon="6.33592">
        <ele>912.43</ele>
        <time>2012-04-03T07:39:35Z</time>
      </trkpt>
      <trkpt lat="44.53198" lon="6.33592">
        <ele>918.2</ele>
        <time>2012-04-03T07:39:36Z</time>
      </trkpt>
      <trkpt lat="44.53199" lon="6.33592">
        <ele>912.43</ele>
        <time>2012-04-03T07:39:37Z</time>
      </trkpt>
      <trkpt lat="44.53199" lon="6.33592">
        <ele>917.24</ele>
        <time>2012-04-03T07:39:38Z</time>
      </trkpt>
      <trkpt lat="44.53203" lon="6.33593">
        <ele>913.87</ele>
        <time>2012-04-03T07:39:45Z</time>
      </trkpt>
      <trkpt lat="44.53204" lon="6.33593">
        <ele>918.2</ele>
        <time>2012-04-03T07:39:46Z</time>
      </trkpt>
      <trkpt lat="44.53205" lon="6.33592">
        <ele>914.83</ele>
        <time>2012-04-03T07:39:50Z</time>
      </trkpt>
      <trkpt lat="44.53205" lon="6.33592">
        <ele>918.68</ele>
        <time>2012-04-03T07:39:51Z</time>
      </trkpt>
      <trkpt lat="44.53209" lon="6.33592">
        <ele>919.64</ele>
        <time>2012-04-03T07:40:02Z</time>
      </trkpt>
      <trkpt lat="44.53209" lon="6.33598">
        <ele>919.64</ele>
        <time>2012-04-03T07:40:07Z</time>
      </trkpt>
      <trkpt lat="44.53208" lon="6.33615">
        <ele>920.6</ele>
        <time>2012-04-03T07:40:21Z</time>
      </trkpt>
      <trkpt lat="44.53207" lon="6.3363">
        <ele>921.56</ele>
        <time>2012-04-03T07:40:35Z</time>
      </trkpt>
      <trkpt lat="44.53208" lon="6.33633">
        <ele>922.04</ele>
        <time>2012-04-03T07:40:38Z</time>
      </trkpt>
      <trkpt lat="44.53214" lon="6.33638">
        <ele>922.52</ele>
        <time>2012-04-03T07:40:47Z</time>
      </trkpt>
      <trkpt lat="44.53217" lon="6.33639">
        <ele>921.56</ele>
        <time>2012-04-03T07:40:53Z</time>
      </trkpt>
      <trkpt lat="44.53218" lon="6.33639">
        <ele>924.93</ele>
        <time>2012-04-03T07:40:54Z</time>
      </trkpt>
      <trkpt lat="44.5322" lon="6.33638">
        <ele>922.52</ele>
        <time>2012-04-03T07:40:56Z</time>
      </trkpt>
      <trkpt lat="44.53223" lon="6.33636">
        <ele>922.04</ele>
        <time>2012-04-03T07:40:59Z</time>
      </trkpt>
      <trkpt lat="44.53227" lon="6.33632">
        <ele>922.52</ele>
        <time>2012-04-03T07:41:05Z</time>
      </trkpt>
      <trkpt lat="44.53229" lon="6.33631">
        <ele>923.48</ele>
        <time>2012-04-03T07:41:08Z</time>
      </trkpt>
      <trkpt lat="44.53232" lon="6.33629">
        <ele>924.45</ele>
        <time>2012-04-03T07:41:11Z</time>
      </trkpt>
      <trkpt lat="44.53233" lon="6.33627">
        <ele>924.93</ele>
        <time>2012-04-03T07:41:13Z</time>
      </trkpt>
      <trkpt lat="44.53235" lon="6.33625">
        <ele>927.33</ele>
        <time>2012-04-03T07:41:16Z</time>
      </trkpt>
      <trkpt lat="44.53238" lon="6.33622">
        <ele>927.33</ele>
        <time>2012-04-03T07:41:20Z</time>
      </trkpt>
      <trkpt lat="44.5324" lon="6.33618">
        <ele>923.48</ele>
        <time>2012-04-03T07:41:24Z</time>
      </trkpt>
      <trkpt lat="44.53248" lon="6.33612">
        <ele>923.96</ele>
        <time>2012-04-03T07:41:32Z</time>
      </trkpt>
      <trkpt lat="44.53249" lon="6.33611">
        <ele>927.33</ele>
        <time>2012-04-03T07:41:33Z</time>
      </trkpt>
      <trkpt lat="44.53251" lon="6.3361">
        <ele>925.89</ele>
        <time>2012-04-03T07:41:35Z</time>
      </trkpt>
      <trkpt lat="44.53253" lon="6.33608">
        <ele>928.29</ele>
        <time>2012-04-03T07:41:38Z</time>
      </trkpt>
      <trkpt lat="44.53254" lon="6.33607">
        <ele>925.89</ele>
        <time>2012-04-03T07:41:39Z</time>
      </trkpt>
      <trkpt lat="44.53258" lon="6.33604">
        <ele>929.25</ele>
        <time>2012-04-03T07:41:43Z</time>
      </trkpt>
      <trkpt lat="44.53261" lon="6.33602">
        <ele>928.77</ele>
        <time>2012-04-03T07:41:46Z</time>
      </trkpt>
      <trkpt lat="44.53262" lon="6.33602">
        <ele>928.29</ele>
        <time>2012-04-03T07:41:47Z</time>
      </trkpt>
      <trkpt lat="44.53262" lon="6.33602">
        <ele>926.37</ele>
        <time>2012-04-03T07:41:48Z</time>
      </trkpt>
      <trkpt lat="44.53266" lon="6.33599">
        <ele>929.25</ele>
        <time>2012-04-03T07:41:52Z</time>
      </trkpt>
      <trkpt lat="44.53268" lon="6.33597">
        <ele>929.73</ele>
        <time>2012-04-03T07:41:55Z</time>
      </trkpt>
      <trkpt lat="44.53269" lon="6.33596">
        <ele>929.25</ele>
        <time>2012-04-03T07:41:56Z</time>
      </trkpt>
      <trkpt lat="44.5327" lon="6.33596">
        <ele>927.33</ele>
        <time>2012-04-03T07:41:57Z</time>
      </trkpt>
      <trkpt lat="44.53272" lon="6.33593">
        <ele>929.73</ele>
        <time>2012-04-03T07:42:00Z</time>
      </trkpt>
      <trkpt lat="44.53275" lon="6.33592">
        <ele>930.69</ele>
        <time>2012-04-03T07:42:03Z</time>
      </trkpt>
      <trkpt lat="44.53276" lon="6.33591">
        <ele>927.33</ele>
        <time>2012-04-03T07:42:04Z</time>
      </trkpt>
      <trkpt lat="44.53279" lon="6.33591">
        <ele>930.69</ele>
        <time>2012-04-03T07:42:06Z</time>
      </trkpt>
      <trkpt lat="44.53289" lon="6.33591">
        <ele>928.77</ele>
        <time>2012-04-03T07:42:18Z</time>
      </trkpt>
      <trkpt lat="44.533" lon="6.33598">
        <ele>930.21</ele>
        <time>2012-04-03T07:42:31Z</time>
      </trkpt>
      <trkpt lat="44.53301" lon="6.33603">
        <ele>934.06</ele>
        <time>2012-04-03T07:42:41Z</time>
      </trkpt>
      <trkpt lat="44.53301" lon="6.33603">
        <ele>930.69</ele>
        <time>2012-04-03T07:42:42Z</time>
      </trkpt>
      <trkpt lat="44.53301" lon="6.33603">
        <ele>929.73</ele>
        <time>2012-04-03T07:42:44Z</time>
      </trkpt>
      <trkpt lat="44.53298" lon="6.33623">
        <ele>930.69</ele>
        <time>2012-04-03T07:42:56Z</time>
      </trkpt>
      <trkpt lat="44.53292" lon="6.33637">
        <ele>931.17</ele>
        <time>2012-04-03T07:43:06Z</time>
      </trkpt>
      <trkpt lat="44.53291" lon="6.33639">
        <ele>930.21</ele>
        <time>2012-04-03T07:43:07Z</time>
      </trkpt>
      <trkpt lat="44.5329" lon="6.33641">
        <ele>929.25</ele>
        <time>2012-04-03T07:43:09Z</time>
      </trkpt>
      <trkpt lat="44.53283" lon="6.33655">
        <ele>927.33</ele>
        <time>2012-04-03T07:43:21Z</time>
      </trkpt>
      <trkpt lat="44.5328" lon="6.33673">
        <ele>926.37</ele>
        <time>2012-04-03T07:43:34Z</time>
      </trkpt>
      <trkpt lat="44.5328" lon="6.33676">
        <ele>926.85</ele>
        <time>2012-04-03T07:43:49Z</time>
      </trkpt>
      <trkpt lat="44.5328" lon="6.33674">
        <ele>926.85</ele>
        <time>2012-04-03T07:44:20Z</time>
      </trkpt>
      <trkpt lat="44.53279" lon="6.33682">
        <ele>924.93</ele>
        <time>2012-04-03T07:44:33Z</time>
      </trkpt>
      <trkpt lat="44.53279" lon="6.33685">
        <ele>925.41</ele>
        <time>2012-04-03T07:44:35Z</time>
      </trkpt>
      <trkpt lat="44.53279" lon="6.3369">
        <ele>925.41</ele>
        <time>2012-04-03T07:44:40Z</time>
      </trkpt>
      <trkpt lat="44.53278" lon="6.33708">
        <ele>926.37</ele>
        <time>2012-04-03T07:44:50Z</time>
      </trkpt>
      <trkpt lat="44.53277" lon="6.33714">
        <ele>924.93</ele>
        <time>2012-04-03T07:44:54Z</time>
      </trkpt>
      <trkpt lat="44.53278" lon="6.33717">
        <ele>925.41</ele>
        <time>2012-04-03T07:44:56Z</time>
      </trkpt>
      <trkpt lat="44.53277" lon="6.33726">
        <ele>924.93</ele>
        <time>2012-04-03T07:45:03Z</time>
      </trkpt>
      <trkpt lat="44.53275" lon="6.33743">
        <ele>925.89</ele>
        <time>2012-04-03T07:45:13Z</time>
      </trkpt>
      <trkpt lat="44.53276" lon="6.33757">
        <ele>925.41</ele>
        <time>2012-04-03T07:45:23Z</time>
      </trkpt>
      <trkpt lat="44.53278" lon="6.3377">
        <ele>924.45</ele>
        <time>2012-04-03T07:45:31Z</time>
      </trkpt>
      <trkpt lat="44.53281" lon="6.33784">
        <ele>925.89</ele>
        <time>2012-04-03T07:45:39Z</time>
      </trkpt>
      <trkpt lat="44.53282" lon="6.33791">
        <ele>925.89</ele>
        <time>2012-04-03T07:45:44Z</time>
      </trkpt>
      <trkpt lat="44.53283" lon="6.33804">
        <ele>925.41</ele>
        <time>2012-04-03T07:45:51Z</time>
      </trkpt>
      <trkpt lat="44.53282" lon="6.33812">
        <ele>926.37</ele>
        <time>2012-04-03T07:45:55Z</time>
      </trkpt>
      <trkpt lat="44.53281" lon="6.33818">
        <ele>924.93</ele>
        <time>2012-04-03T07:45:59Z</time>
      </trkpt>
      <trkpt lat="44.53281" lon="6.33834">
        <ele>922.52</ele>
        <time>2012-04-03T07:46:09Z</time>
      </trkpt>
      <trkpt lat="44.53281" lon="6.3384">
        <ele>924.45</ele>
        <time>2012-04-03T07:46:12Z</time>
      </trkpt>
      <trkpt lat="44.5328" lon="6.33844">
        <ele>923</ele>
        <time>2012-04-03T07:46:16Z</time>
      </trkpt>
      <trkpt lat="44.53282" lon="6.33843">
        <ele>926.37</ele>
        <time>2012-04-03T07:46:26Z</time>
      </trkpt>
      <trkpt lat="44.53282" lon="6.33843">
        <ele>922.52</ele>
        <time>2012-04-03T07:46:27Z</time>
      </trkpt>
      <trkpt lat="44.53282" lon="6.33843">
        <ele>926.85</ele>
        <time>2012-04-03T07:46:28Z</time>
      </trkpt>
      <trkpt lat="44.5328" lon="6.3385">
        <ele>925.89</ele>
        <time>2012-04-03T07:46:39Z</time>
      </trkpt>
      <trkpt lat="44.53283" lon="6.3386">
        <ele>929.25</ele>
        <time>2012-04-03T07:46:40Z</time>
      </trkpt>
      <trkpt lat="44.53283" lon="6.3387">
        <ele>925.41</ele>
        <time>2012-04-03T07:46:41Z</time>
      </trkpt>
      <trkpt lat="44.53284" lon="6.33879">
        <ele>928.77</ele>
        <time>2012-04-03T07:46:42Z</time>
      </trkpt>
      <trkpt lat="44.53288" lon="6.33887">
        <ele>929.25</ele>
        <time>2012-04-03T07:46:50Z</time>
      </trkpt>
      <trkpt lat="44.53292" lon="6.33899">
        <ele>933.58</ele>
        <time>2012-04-03T07:46:54Z</time>
      </trkpt>
      <trkpt lat="44.53292" lon="6.33904">
        <ele>928.29</ele>
        <time>2012-04-03T07:46:55Z</time>
      </trkpt>
      <trkpt lat="44.53297" lon="6.33913">
        <ele>932.62</ele>
        <time>2012-04-03T07:46:56Z</time>
      </trkpt>
      <trkpt lat="44.53302" lon="6.33923">
        <ele>928.77</ele>
        <time>2012-04-03T07:46:58Z</time>
      </trkpt>
      <trkpt lat="44.53309" lon="6.33932">
        <ele>933.1</ele>
        <time>2012-04-03T07:46:59Z</time>
      </trkpt>
      <trkpt lat="44.53315" lon="6.3394">
        <ele>929.73</ele>
        <time>2012-04-03T07:47:00Z</time>
      </trkpt>
      <trkpt lat="44.5332" lon="6.33947">
        <ele>934.54</ele>
        <time>2012-04-03T07:47:02Z</time>
      </trkpt>
      <trkpt lat="44.53327" lon="6.33953">
        <ele>930.21</ele>
        <time>2012-04-03T07:47:03Z</time>
      </trkpt>
      <trkpt lat="44.53328" lon="6.3397">
        <ele>934.06</ele>
        <time>2012-04-03T07:47:04Z</time>
      </trkpt>
      <trkpt lat="44.53323" lon="6.33995">
        <ele>929.25</ele>
        <time>2012-04-03T07:47:05Z</time>
      </trkpt>
      <trkpt lat="44.53314" lon="6.34024">
        <ele>934.54</ele>
        <time>2012-04-03T07:47:07Z</time>
      </trkpt>
      <trkpt lat="44.53312" lon="6.34044">
        <ele>930.21</ele>
        <time>2012-04-03T07:47:08Z</time>
      </trkpt>
      <trkpt lat="44.53307" lon="6.34072">
        <ele>933.58</ele>
        <time>2012-04-03T07:47:09Z</time>
      </trkpt>
      <trkpt lat="44.533" lon="6.3409">
        <ele>930.21</ele>
        <time>2012-04-03T07:47:11Z</time>
      </trkpt>
      <trkpt lat="44.53295" lon="6.34119">
        <ele>933.58</ele>
        <time>2012-04-03T07:47:12Z</time>
      </trkpt>
      <trkpt lat="44.53294" lon="6.34173">
        <ele>930.21</ele>
        <time>2012-04-03T07:47:16Z</time>
      </trkpt>
      <trkpt lat="44.53289" lon="6.34195">
        <ele>933.58</ele>
        <time>2012-04-03T07:47:17Z</time>
      </trkpt>
      <trkpt lat="44.5326" lon="6.34175">
        <ele>930.69</ele>
        <time>2012-04-03T07:47:25Z</time>
      </trkpt>
      <trkpt lat="44.53225" lon="6.3415">
        <ele>916.75</ele>
        <time>2012-04-03T09:14:35Z</time>
      </trkpt>
      <trkpt lat="44.53193" lon="6.34141">
        <ele>915.31</ele>
        <time>2012-04-03T09:14:41Z</time>
      </trkpt>
      <trkpt lat="44.53174" lon="6.34147">
        <ele>913.39</ele>
        <time>2012-04-03T09:14:52Z</time>
      </trkpt>
      <trkpt lat="44.53144" lon="6.34162">
        <ele>911.95</ele>
        <time>2012-04-03T09:15:00Z</time>
      </trkpt>
      <trkpt lat="44.5311" lon="6.34196">
        <ele>910.51</ele>
        <time>2012-04-03T09:15:11Z</time>
      </trkpt>
      <trkpt lat="44.53088" lon="6.34227">
        <ele>909.06</ele>
        <time>2012-04-03T09:15:14Z</time>
      </trkpt>
      <trkpt lat="44.53078" lon="6.34287">
        <ele>907.62</ele>
        <time>2012-04-03T09:15:26Z</time>
      </trkpt>
      <trkpt lat="44.53081" lon="6.34283">
        <ele>915.4</ele>
      </trkpt>
      <trkpt lat="44.53068" lon="6.3432">
        <ele>907.14</ele>
        <time>2012-04-03T09:15:28Z</time>
      </trkpt>
      <trkpt lat="44.53059" lon="6.34343">
        <ele>906.66</ele>
        <time>2012-04-03T09:15:40Z</time>
      </trkpt>
      <trkpt lat="44.53046" lon="6.34368">
        <ele>906.66</ele>
        <time>2012-04-03T09:15:57Z</time>
      </trkpt>
      <trkpt lat="44.53038" lon="6.34394">
        <ele>906.66</ele>
        <time>2012-04-03T09:16:13Z</time>
      </trkpt>
      <trkpt lat="44.53027" lon="6.3442">
        <ele>906.66</ele>
        <time>2012-04-03T09:16:24Z</time>
      </trkpt>
      <trkpt lat="44.53017" lon="6.34439">
        <ele>907.62</ele>
        <time>2012-04-03T09:16:51Z</time>
      </trkpt>
      <trkpt lat="44.53008" lon="6.34457">
        <ele>906.66</ele>
        <time>2012-04-03T09:17:18Z</time>
      </trkpt>
      <trkpt lat="44.53002" lon="6.34471">
        <ele>906.66</ele>
        <time>2012-04-03T09:17:24Z</time>
      </trkpt>
      <trkpt lat="44.52995" lon="6.34485">
        <ele>905.7</ele>
        <time>2012-04-03T09:17:32Z</time>
      </trkpt>
      <trkpt lat="44.52986" lon="6.34499">
        <ele>905.22</ele>
        <time>2012-04-03T09:17:44Z</time>
      </trkpt>
      <trkpt lat="44.52978" lon="6.3451">
        <ele>903.3</ele>
        <time>2012-04-03T09:18:01Z</time>
      </trkpt>
      <trkpt lat="44.52962" lon="6.3452">
        <ele>903.3</ele>
        <time>2012-04-03T09:18:18Z</time>
      </trkpt>
      <trkpt lat="44.52946" lon="6.34532">
        <ele>901.37</ele>
        <time>2012-04-03T09:18:33Z</time>
      </trkpt>
      <trkpt lat="44.52932" lon="6.34547">
        <ele>900.41</ele>
        <time>2012-04-03T09:18:49Z</time>
      </trkpt>
      <trkpt lat="44.52924" lon="6.34561">
        <ele>898.01</ele>
        <time>2012-04-03T09:19:06Z</time>
      </trkpt>
      <trkpt lat="44.52914" lon="6.34575">
        <ele>898.01</ele>
        <time>2012-04-03T09:19:11Z</time>
      </trkpt>
      <trkpt lat="44.52908" lon="6.34588">
        <ele>896.57</ele>
        <time>2012-04-03T09:19:22Z</time>
      </trkpt>
      <trkpt lat="44.52902" lon="6.34598">
        <ele>895.12</ele>
        <time>2012-04-03T09:19:27Z</time>
      </trkpt>
      <trkpt lat="44.52894" lon="6.34615">
        <ele>894.64</ele>
        <time>2012-04-03T09:19:35Z</time>
      </trkpt>
      <trkpt lat="44.52891" lon="6.34623">
        <ele>896.57</ele>
        <time>2012-04-03T09:19:43Z</time>
      </trkpt>
      <trkpt lat="44.52886" lon="6.34633">
        <ele>894.16</ele>
        <time>2012-04-03T09:19:45Z</time>
      </trkpt>
      <trkpt lat="44.52883" lon="6.34642">
        <ele>893.68</ele>
        <time>2012-04-03T09:19:52Z</time>
      </trkpt>
      <trkpt lat="44.52869" lon="6.34647">
        <ele>891.28</ele>
        <time>2012-04-03T09:20:03Z</time>
      </trkpt>
      <trkpt lat="44.52866" lon="6.34648">
        <ele>895.12</ele>
        <time>2012-04-03T09:20:06Z</time>
      </trkpt>
      <trkpt lat="44.52865" lon="6.34649">
        <ele>890.32</ele>
        <time>2012-04-03T09:20:08Z</time>
      </trkpt>
      <trkpt lat="44.5286" lon="6.34651">
        <ele>888.88</ele>
        <time>2012-04-03T09:20:14Z</time>
      </trkpt>
      <trkpt lat="44.52852" lon="6.34652">
        <ele>885.99</ele>
        <time>2012-04-03T09:20:26Z</time>
      </trkpt>
      <trkpt lat="44.5285" lon="6.34652">
        <ele>885.99</ele>
        <time>2012-04-03T09:20:28Z</time>
      </trkpt>
      <trkpt lat="44.52848" lon="6.34653">
        <ele>885.51</ele>
        <time>2012-04-03T09:20:31Z</time>
      </trkpt>
      <trkpt lat="44.52846" lon="6.34652">
        <ele>884.07</ele>
        <time>2012-04-03T09:20:33Z</time>
      </trkpt>
      <trkpt lat="44.52844" lon="6.34652">
        <ele>885.03</ele>
        <time>2012-04-03T09:20:35Z</time>
      </trkpt>
      <trkpt lat="44.5284" lon="6.34658">
        <ele>881.67</ele>
        <time>2012-04-03T09:20:44Z</time>
      </trkpt>
      <trkpt lat="44.52839" lon="6.34662">
        <ele>879.74</ele>
        <time>2012-04-03T09:20:48Z</time>
      </trkpt>
      <trkpt lat="44.52839" lon="6.34663">
        <ele>881.19</ele>
        <time>2012-04-03T09:20:49Z</time>
      </trkpt>
      <trkpt lat="44.52838" lon="6.34664">
        <ele>884.55</ele>
        <time>2012-04-03T09:20:50Z</time>
      </trkpt>
      <trkpt lat="44.52837" lon="6.34665">
        <ele>883.11</ele>
        <time>2012-04-03T09:20:51Z</time>
      </trkpt>
      <trkpt lat="44.52836" lon="6.34666">
        <ele>882.15</ele>
        <time>2012-04-03T09:20:53Z</time>
      </trkpt>
      <trkpt lat="44.52833" lon="6.34664">
        <ele>881.19</ele>
        <time>2012-04-03T09:21:04Z</time>
      </trkpt>
      <trkpt lat="44.52828" lon="6.34652">
        <ele>880.22</ele>
        <time>2012-04-03T09:21:14Z</time>
      </trkpt>
      <trkpt lat="44.52828" lon="6.3465">
        <ele>881.19</ele>
        <time>2012-04-03T09:21:16Z</time>
      </trkpt>
      <trkpt lat="44.52827" lon="6.34647">
        <ele>879.74</ele>
        <time>2012-04-03T09:21:18Z</time>
      </trkpt>
      <trkpt lat="44.52827" lon="6.34645">
        <ele>879.74</ele>
        <time>2012-04-03T09:21:20Z</time>
      </trkpt>
      <trkpt lat="44.52825" lon="6.34639">
        <ele>878.3</ele>
        <time>2012-04-03T09:21:24Z</time>
      </trkpt>
      <trkpt lat="44.52824" lon="6.3463">
        <ele>878.3</ele>
        <time>2012-04-03T09:21:31Z</time>
      </trkpt>
      <trkpt lat="44.52825" lon="6.34621">
        <ele>879.74</ele>
        <time>2012-04-03T09:21:39Z</time>
      </trkpt>
      <trkpt lat="44.52825" lon="6.34614">
        <ele>876.86</ele>
        <time>2012-04-03T09:21:44Z</time>
      </trkpt>
      <trkpt lat="44.52824" lon="6.3461">
        <ele>879.74</ele>
        <time>2012-04-03T09:21:47Z</time>
      </trkpt>
      <trkpt lat="44.52823" lon="6.34607">
        <ele>878.3</ele>
        <time>2012-04-03T09:21:50Z</time>
      </trkpt>
      <trkpt lat="44.52822" lon="6.34602">
        <ele>879.26</ele>
        <time>2012-04-03T09:21:53Z</time>
      </trkpt>
      <trkpt lat="44.52821" lon="6.346">
        <ele>878.3</ele>
        <time>2012-04-03T09:21:55Z</time>
      </trkpt>
      <trkpt lat="44.52819" lon="6.34591">
        <ele>879.74</ele>
        <time>2012-04-03T09:22:01Z</time>
      </trkpt>
      <trkpt lat="44.52818" lon="6.34589">
        <ele>876.86</ele>
        <time>2012-04-03T09:22:03Z</time>
      </trkpt>
      <trkpt lat="44.52816" lon="6.34581">
        <ele>878.78</ele>
        <time>2012-04-03T09:22:09Z</time>
      </trkpt>
      <trkpt lat="44.52814" lon="6.34572">
        <ele>879.26</ele>
        <time>2012-04-03T09:22:15Z</time>
      </trkpt>
      <trkpt lat="44.52812" lon="6.34563">
        <ele>876.86</ele>
        <time>2012-04-03T09:22:21Z</time>
      </trkpt>
      <trkpt lat="44.52805" lon="6.34541">
        <ele>876.38</ele>
        <time>2012-04-03T09:22:36Z</time>
      </trkpt>
      <trkpt lat="44.52804" lon="6.34538">
        <ele>877.82</ele>
        <time>2012-04-03T09:22:38Z</time>
      </trkpt>
      <trkpt lat="44.52802" lon="6.3453">
        <ele>880.22</ele>
        <time>2012-04-03T09:22:44Z</time>
      </trkpt>
      <trkpt lat="44.52802" lon="6.34527">
        <ele>877.82</ele>
        <time>2012-04-03T09:22:46Z</time>
      </trkpt>
      <trkpt lat="44.52797" lon="6.34514">
        <ele>876.38</ele>
        <time>2012-04-03T09:22:58Z</time>
      </trkpt>
      <trkpt lat="44.52793" lon="6.3451">
        <ele>876.38</ele>
        <time>2012-04-03T09:23:01Z</time>
      </trkpt>
      <trkpt lat="44.52787" lon="6.34508">
        <ele>876.38</ele>
        <time>2012-04-03T09:23:07Z</time>
      </trkpt>
      <trkpt lat="44.52783" lon="6.3451">
        <ele>875.42</ele>
        <time>2012-04-03T09:23:11Z</time>
      </trkpt>
      <trkpt lat="44.5278" lon="6.34511">
        <ele>875.42</ele>
        <time>2012-04-03T09:23:14Z</time>
      </trkpt>
      <trkpt lat="44.52777" lon="6.34512">
        <ele>876.86</ele>
        <time>2012-04-03T09:23:16Z</time>
      </trkpt>
      <trkpt lat="44.5277" lon="6.34518">
        <ele>877.34</ele>
        <time>2012-04-03T09:23:22Z</time>
      </trkpt>
      <trkpt lat="44.52765" lon="6.34521">
        <ele>873.98</ele>
        <time>2012-04-03T09:23:27Z</time>
      </trkpt>
      <trkpt lat="44.52761" lon="6.34523">
        <ele>876.86</ele>
        <time>2012-04-03T09:23:30Z</time>
      </trkpt>
      <trkpt lat="44.52758" lon="6.34524">
        <ele>873.5</ele>
        <time>2012-04-03T09:23:33Z</time>
      </trkpt>
      <trkpt lat="44.52751" lon="6.34526">
        <ele>876.38</ele>
        <time>2012-04-03T09:23:39Z</time>
      </trkpt>
      <trkpt lat="44.52748" lon="6.34527">
        <ele>874.46</ele>
        <time>2012-04-03T09:23:43Z</time>
      </trkpt>
      <trkpt lat="44.52741" lon="6.34532">
        <ele>873.98</ele>
        <time>2012-04-03T09:23:52Z</time>
      </trkpt>
      <trkpt lat="44.52737" lon="6.34534">
        <ele>875.42</ele>
        <time>2012-04-03T09:23:54Z</time>
      </trkpt>
      <trkpt lat="44.52733" lon="6.34535">
        <ele>874.46</ele>
        <time>2012-04-03T09:23:59Z</time>
      </trkpt>
      <trkpt lat="44.52724" lon="6.34538">
        <ele>873.01</ele>
        <time>2012-04-03T09:24:06Z</time>
      </trkpt>
      <trkpt lat="44.52721" lon="6.34539">
        <ele>874.94</ele>
        <time>2012-04-03T09:24:09Z</time>
      </trkpt>
      <trkpt lat="44.52715" lon="6.34538">
        <ele>873.98</ele>
        <time>2012-04-03T09:24:15Z</time>
      </trkpt>
      <trkpt lat="44.52709" lon="6.34539">
        <ele>874.94</ele>
        <time>2012-04-03T09:24:19Z</time>
      </trkpt>
      <trkpt lat="44.52708" lon="6.3454">
        <ele>871.57</ele>
        <time>2012-04-03T09:24:21Z</time>
      </trkpt>
      <trkpt lat="44.52707" lon="6.34541">
        <ele>873.98</ele>
        <time>2012-04-03T09:24:22Z</time>
      </trkpt>
      <trkpt lat="44.52704" lon="6.34543">
        <ele>873.01</ele>
        <time>2012-04-03T09:24:26Z</time>
      </trkpt>
      <trkpt lat="44.52703" lon="6.34543">
        <ele>875.42</ele>
        <time>2012-04-03T09:24:27Z</time>
      </trkpt>
      <trkpt lat="44.527" lon="6.34544">
        <ele>876.38</ele>
        <time>2012-04-03T09:24:29Z</time>
      </trkpt>
      <trkpt lat="44.52698" lon="6.34545">
        <ele>872.53</ele>
        <time>2012-04-03T09:24:31Z</time>
      </trkpt>
      <trkpt lat="44.52694" lon="6.34546">
        <ele>876.86</ele>
        <time>2012-04-03T09:24:34Z</time>
      </trkpt>
      <trkpt lat="44.52694" lon="6.34547">
        <ele>873.01</ele>
        <time>2012-04-03T09:24:35Z</time>
      </trkpt>
      <trkpt lat="44.52689" lon="6.34549">
        <ele>875.9</ele>
        <time>2012-04-03T09:24:40Z</time>
      </trkpt>
      <trkpt lat="44.52686" lon="6.34551">
        <ele>875.42</ele>
        <time>2012-04-03T09:24:43Z</time>
      </trkpt>
      <trkpt lat="44.52683" lon="6.34553">
        <ele>875.9</ele>
        <time>2012-04-03T09:24:46Z</time>
      </trkpt>
      <trkpt lat="44.52671" lon="6.34554">
        <ele>874.94</ele>
        <time>2012-04-03T09:24:58Z</time>
      </trkpt>
      <trkpt lat="44.5266" lon="6.34557">
        <ele>873.98</ele>
        <time>2012-04-03T09:25:09Z</time>
      </trkpt>
      <trkpt lat="44.52655" lon="6.3456">
        <ele>873.5</ele>
        <time>2012-04-03T09:25:17Z</time>
      </trkpt>
      <trkpt lat="44.52653" lon="6.34561">
        <ele>874.46</ele>
        <time>2012-04-03T09:25:19Z</time>
      </trkpt>
      <trkpt lat="44.52639" lon="6.34558">
        <ele>873.98</ele>
        <time>2012-04-03T09:25:32Z</time>
      </trkpt>
      <trkpt lat="44.52625" lon="6.34555">
        <ele>873.5</ele>
        <time>2012-04-03T09:25:46Z</time>
      </trkpt>
      <trkpt lat="44.52622" lon="6.34556">
        <ele>872.53</ele>
        <time>2012-04-03T09:25:49Z</time>
      </trkpt>
      <trkpt lat="44.52611" lon="6.34556">
        <ele>869.17</ele>
        <time>2012-04-03T09:25:58Z</time>
      </trkpt>
      <trkpt lat="44.5261" lon="6.34556">
        <ele>873.01</ele>
        <time>2012-04-03T09:25:59Z</time>
      </trkpt>
      <trkpt lat="44.52605" lon="6.34556">
        <ele>871.57</ele>
        <time>2012-04-03T09:26:04Z</time>
      </trkpt>
      <trkpt lat="44.52591" lon="6.34559">
        <ele>871.09</ele>
        <time>2012-04-03T09:26:16Z</time>
      </trkpt>
      <trkpt lat="44.52581" lon="6.34552">
        <ele>871.09</ele>
        <time>2012-04-03T09:26:28Z</time>
      </trkpt>
      <trkpt lat="44.52575" lon="6.3454">
        <ele>869.65</ele>
        <time>2012-04-03T09:26:40Z</time>
      </trkpt>
      <trkpt lat="44.52574" lon="6.34525">
        <ele>866.77</ele>
        <time>2012-04-03T09:26:55Z</time>
      </trkpt>
      <trkpt lat="44.52569" lon="6.34512">
        <ele>866.29</ele>
        <time>2012-04-03T09:27:03Z</time>
      </trkpt>
      <trkpt lat="44.52568" lon="6.3451">
        <ele>867.73</ele>
        <time>2012-04-03T09:27:05Z</time>
      </trkpt>
      <trkpt lat="44.52548" lon="6.34501">
        <ele>863.4</ele>
        <time>2012-04-03T09:27:23Z</time>
      </trkpt>
      <trkpt lat="44.52548" lon="6.345">
        <ele>866.29</ele>
        <time>2012-04-03T09:27:24Z</time>
      </trkpt>
      <trkpt lat="44.52549" lon="6.34486">
        <ele>862.44</ele>
        <time>2012-04-03T09:27:32Z</time>
      </trkpt>
      <trkpt lat="44.52549" lon="6.34483">
        <ele>865.8</ele>
        <time>2012-04-03T09:27:34Z</time>
      </trkpt>
      <trkpt lat="44.52548" lon="6.34482">
        <ele>865.32</ele>
        <time>2012-04-03T09:27:35Z</time>
      </trkpt>
      <trkpt lat="44.5255" lon="6.34465">
        <ele>862.44</ele>
        <time>2012-04-03T09:27:46Z</time>
      </trkpt>
      <trkpt lat="44.52551" lon="6.34457">
        <ele>863.4</ele>
        <time>2012-04-03T09:27:50Z</time>
      </trkpt>
      <trkpt lat="44.52553" lon="6.34444">
        <ele>863.88</ele>
        <time>2012-04-03T09:27:58Z</time>
      </trkpt>
      <trkpt lat="44.52554" lon="6.34439">
        <ele>862.92</ele>
        <time>2012-04-03T09:28:04Z</time>
      </trkpt>
      <trkpt lat="44.52554" lon="6.34429">
        <ele>861.96</ele>
        <time>2012-04-03T09:28:12Z</time>
      </trkpt>
      <trkpt lat="44.52547" lon="6.34429">
        <ele>859.08</ele>
        <time>2012-04-03T09:28:20Z</time>
      </trkpt>
      <trkpt lat="44.52546" lon="6.3443">
        <ele>860.04</ele>
        <time>2012-04-03T09:28:21Z</time>
      </trkpt>
      <trkpt lat="44.52534" lon="6.34437">
        <ele>856.67</ele>
        <time>2012-04-03T09:28:34Z</time>
      </trkpt>
      <trkpt lat="44.5253" lon="6.34439">
        <ele>853.7</ele>
      </trkpt>
      <trkpt lat="44.52524" lon="6.34439">
        <ele>851.7</ele>
      </trkpt>
      <trkpt lat="44.52519" lon="6.34432">
        <ele>849.9</ele>
      </trkpt>
      <trkpt lat="44.52518" lon="6.34425">
        <ele>849.6</ele>
      </trkpt>
      <trkpt lat="44.52519" lon="6.34418">
        <ele>850</ele>
      </trkpt>
      <trkpt lat="44.52521" lon="6.34409">
        <ele>850.9</ele>
      </trkpt>
      <trkpt lat="44.52521" lon="6.34402">
        <ele>851.1</ele>
      </trkpt>
      <trkpt lat="44.52522" lon="6.34397">
        <ele>851.6</ele>
      </trkpt>
      <trkpt lat="44.52522" lon="6.34392">
        <ele>851.9</ele>
        <time>2012-04-03T09:29:13Z</time>
      </trkpt>
      <trkpt lat="44.52522" lon="6.3439">
        <ele>851.9</ele>
      </trkpt>
      <trkpt lat="44.52523" lon="6.34389">
        <ele>852.2</ele>
      </trkpt>
      <trkpt lat="44.52526" lon="6.34382">
        <ele>855.23</ele>
        <time>2012-04-03T09:29:22Z</time>
      </trkpt>
      <trkpt lat="44.52525" lon="6.34379">
        <ele>850.42</ele>
        <time>2012-04-03T09:29:24Z</time>
      </trkpt>
      <trkpt lat="44.52525" lon="6.34375">
        <ele>854.75</ele>
        <time>2012-04-03T09:29:26Z</time>
      </trkpt>
      <trkpt lat="44.52525" lon="6.34373">
        <ele>855.23</ele>
        <time>2012-04-03T09:29:27Z</time>
      </trkpt>
      <trkpt lat="44.52525" lon="6.3437">
        <ele>853.5</ele>
        <time>2012-04-03T09:29:48Z</time>
      </trkpt>
      <trkpt lat="44.52525" lon="6.34362">
        <ele>853.31</ele>
        <time>2012-04-03T09:33:42Z</time>
      </trkpt>
      <trkpt lat="44.52523" lon="6.34359">
        <ele>853.2</ele>
        <time>2012-04-03T09:33:51Z</time>
      </trkpt>
      <trkpt lat="44.52523" lon="6.3436">
        <ele>853</ele>
        <time>2012-04-03T09:34:23Z</time>
      </trkpt>
      <trkpt lat="44.52521" lon="6.34358">
        <ele>852.5</ele>
        <time>2012-04-03T09:34:30Z</time>
      </trkpt>
      <trkpt lat="44.5252" lon="6.34355">
        <ele>852.1</ele>
      </trkpt>
      <trkpt lat="44.52519" lon="6.34355">
        <ele>852.35</ele>
        <time>2012-04-03T09:34:34Z</time>
      </trkpt>
      <trkpt lat="44.52518" lon="6.34357">
        <ele>850.9</ele>
        <time>2012-04-03T09:34:37Z</time>
      </trkpt>
      <trkpt lat="44.52516" lon="6.3436">
        <ele>849.94</ele>
        <time>2012-04-03T09:34:39Z</time>
      </trkpt>
      <trkpt lat="44.52511" lon="6.34367">
        <ele>848.98</ele>
        <time>2012-04-03T09:34:44Z</time>
      </trkpt>
      <trkpt lat="44.52507" lon="6.34373">
        <ele>847.06</ele>
        <time>2012-04-03T09:34:58Z</time>
      </trkpt>
      <trkpt lat="44.52503" lon="6.34382">
        <ele>845.62</ele>
        <time>2012-04-03T09:35:07Z</time>
      </trkpt>
      <trkpt lat="44.52501" lon="6.34387">
        <ele>845.14</ele>
        <time>2012-04-03T09:35:22Z</time>
      </trkpt>
      <trkpt lat="44.52495" lon="6.34402">
        <ele>843.69</ele>
        <time>2012-04-03T09:35:33Z</time>
      </trkpt>
      <trkpt lat="44.52486" lon="6.34413">
        <ele>843.21</ele>
        <time>2012-04-03T09:35:45Z</time>
      </trkpt>
      <trkpt lat="44.52481" lon="6.3442">
        <ele>839.85</ele>
        <time>2012-04-03T09:35:54Z</time>
      </trkpt>
      <trkpt lat="44.52481" lon="6.3442">
        <ele>839.85</ele>
        <time>2012-04-03T09:35:55Z</time>
      </trkpt>
      <trkpt lat="44.52479" lon="6.34428">
        <ele>837.45</ele>
        <time>2012-04-03T09:36:02Z</time>
      </trkpt>
      <trkpt lat="44.52472" lon="6.34443">
        <ele>839.37</ele>
        <time>2012-04-03T09:36:14Z</time>
      </trkpt>
      <trkpt lat="44.52468" lon="6.34448">
        <ele>835.52</ele>
        <time>2012-04-03T09:36:22Z</time>
      </trkpt>
      <trkpt lat="44.52462" lon="6.34459">
        <ele>833.6</ele>
        <time>2012-04-03T09:36:35Z</time>
      </trkpt>
      <trkpt lat="44.52462" lon="6.3446">
        <ele>833.6</ele>
        <time>2012-04-03T09:36:36Z</time>
      </trkpt>
      <trkpt lat="44.52456" lon="6.34457">
        <ele>832.64</ele>
        <time>2012-04-03T09:36:47Z</time>
      </trkpt>
      <trkpt lat="44.52455" lon="6.34458">
        <ele>829.76</ele>
        <time>2012-04-03T09:36:49Z</time>
      </trkpt>
      <trkpt lat="44.52451" lon="6.34461">
        <ele>830.72</ele>
        <time>2012-04-03T09:36:54Z</time>
      </trkpt>
      <trkpt lat="44.52447" lon="6.34462">
        <ele>830.72</ele>
        <time>2012-04-03T09:36:57Z</time>
      </trkpt>
      <trkpt lat="44.52443" lon="6.34462">
        <ele>828.79</ele>
        <time>2012-04-03T09:37:01Z</time>
      </trkpt>
      <trkpt lat="44.52442" lon="6.34462">
        <ele>828.79</ele>
        <time>2012-04-03T09:37:02Z</time>
      </trkpt>
      <trkpt lat="44.52435" lon="6.34466">
        <ele>829.27</ele>
        <time>2012-04-03T09:37:07Z</time>
      </trkpt>
      <trkpt lat="44.52432" lon="6.34468">
        <ele>828.31</ele>
        <time>2012-04-03T09:37:09Z</time>
      </trkpt>
      <trkpt lat="44.52429" lon="6.34469">
        <ele>829.76</ele>
        <time>2012-04-03T09:37:12Z</time>
      </trkpt>
      <trkpt lat="44.52428" lon="6.34469">
        <ele>827.35</ele>
        <time>2012-04-03T09:37:13Z</time>
      </trkpt>
      <trkpt lat="44.52426" lon="6.34467">
        <ele>829.27</ele>
        <time>2012-04-03T09:37:16Z</time>
      </trkpt>
      <trkpt lat="44.52422" lon="6.34459">
        <ele>827.35</ele>
        <time>2012-04-03T09:37:23Z</time>
      </trkpt>
      <trkpt lat="44.5242" lon="6.34457">
        <ele>826.87</ele>
        <time>2012-04-03T09:37:26Z</time>
      </trkpt>
      <trkpt lat="44.52417" lon="6.34457">
        <ele>825.43</ele>
        <time>2012-04-03T09:37:30Z</time>
      </trkpt>
      <trkpt lat="44.52411" lon="6.34458">
        <ele>824.95</ele>
        <time>2012-04-03T09:37:35Z</time>
      </trkpt>
      <trkpt lat="44.52409" lon="6.34458">
        <ele>825.91</ele>
        <time>2012-04-03T09:37:37Z</time>
      </trkpt>
      <trkpt lat="44.52408" lon="6.34459">
        <ele>823.99</ele>
        <time>2012-04-03T09:37:39Z</time>
      </trkpt>
      <trkpt lat="44.52408" lon="6.34459">
        <ele>827.83</ele>
        <time>2012-04-03T09:37:43Z</time>
      </trkpt>
      <trkpt lat="44.52408" lon="6.34457">
        <ele>824.47</ele>
        <time>2012-04-03T09:37:46Z</time>
      </trkpt>
      <trkpt lat="44.52408" lon="6.34456">
        <ele>828.31</ele>
        <time>2012-04-03T09:37:47Z</time>
      </trkpt>
      <trkpt lat="44.52408" lon="6.34456">
        <ele>825.43</ele>
        <time>2012-04-03T09:37:54Z</time>
      </trkpt>
      <trkpt lat="44.52408" lon="6.34459">
        <ele>823.99</ele>
        <time>2012-04-03T09:37:58Z</time>
      </trkpt>
      <trkpt lat="44.52408" lon="6.34463">
        <ele>828.31</ele>
        <time>2012-04-03T09:38:03Z</time>
      </trkpt>
      <trkpt lat="44.52408" lon="6.34463">
        <ele>824.47</ele>
        <time>2012-04-03T09:38:04Z</time>
      </trkpt>
      <trkpt lat="44.5241" lon="6.34465">
        <ele>829.27</ele>
        <time>2012-04-03T09:38:09Z</time>
      </trkpt>
      <trkpt lat="44.5241" lon="6.34465">
        <ele>827.83</ele>
        <time>2012-04-03T09:38:10Z</time>
      </trkpt>
      <trkpt lat="44.52412" lon="6.34466">
        <ele>828.79</ele>
        <time>2012-04-03T09:38:20Z</time>
      </trkpt>
      <trkpt lat="44.52407" lon="6.34466">
        <ele>825.91</ele>
        <time>2012-04-03T09:38:28Z</time>
      </trkpt>
      <trkpt lat="44.52403" lon="6.34465">
        <ele>824.47</ele>
        <time>2012-04-03T09:38:35Z</time>
      </trkpt>
      <trkpt lat="44.52397" lon="6.34464">
        <ele>823.51</ele>
        <time>2012-04-03T09:38:41Z</time>
      </trkpt>
      <trkpt lat="44.52395" lon="6.34465">
        <ele>823.99</ele>
        <time>2012-04-03T09:38:43Z</time>
      </trkpt>
      <trkpt lat="44.52387" lon="6.34466">
        <ele>822.55</ele>
        <time>2012-04-03T09:38:58Z</time>
      </trkpt>
      <trkpt lat="44.52387" lon="6.34465">
        <ele>822.55</ele>
        <time>2012-04-03T09:39:21Z</time>
      </trkpt>
      <trkpt lat="44.52381" lon="6.34471">
        <ele>822.06</ele>
        <time>2012-04-03T09:39:42Z</time>
      </trkpt>
      <trkpt lat="44.52347" lon="6.34488">
        <ele>819.18</ele>
        <time>2012-04-03T09:40:57Z</time>
      </trkpt>
      <trkpt lat="44.52342" lon="6.34489">
        <ele>819.66</ele>
        <time>2012-04-03T09:41:13Z</time>
      </trkpt>
      <trkpt lat="44.52339" lon="6.34491">
        <ele>815.34</ele>
        <time>2012-04-03T09:41:19Z</time>
      </trkpt>
      <trkpt lat="44.52339" lon="6.34491">
        <ele>821.1</ele>
        <time>2012-04-03T09:41:20Z</time>
      </trkpt>
      <trkpt lat="44.52336" lon="6.34493">
        <ele>815.82</ele>
        <time>2012-04-03T09:41:24Z</time>
      </trkpt>
      <trkpt lat="44.52333" lon="6.34495">
        <ele>818.22</ele>
        <time>2012-04-03T09:41:27Z</time>
      </trkpt>
      <trkpt lat="44.52332" lon="6.34495">
        <ele>823.51</ele>
        <time>2012-04-03T09:41:28Z</time>
      </trkpt>
      <trkpt lat="44.52331" lon="6.34495">
        <ele>817.26</ele>
        <time>2012-04-03T09:41:29Z</time>
      </trkpt>
      <trkpt lat="44.5233" lon="6.34495">
        <ele>820.14</ele>
        <time>2012-04-03T09:41:31Z</time>
      </trkpt>
      <trkpt lat="44.52329" lon="6.34495">
        <ele>821.1</ele>
        <time>2012-04-03T09:41:33Z</time>
      </trkpt>
      <trkpt lat="44.52327" lon="6.34496">
        <ele>824.47</ele>
        <time>2012-04-03T09:41:35Z</time>
      </trkpt>
      <trkpt lat="44.52327" lon="6.34496">
        <ele>821.1</ele>
        <time>2012-04-03T09:41:36Z</time>
      </trkpt>
      <trkpt lat="44.52325" lon="6.34496">
        <ele>824.47</ele>
        <time>2012-04-03T09:41:38Z</time>
      </trkpt>
      <trkpt lat="44.52325" lon="6.34496">
        <ele>818.7</ele>
        <time>2012-04-03T09:41:39Z</time>
      </trkpt>
      <trkpt lat="44.52324" lon="6.34496">
        <ele>822.55</ele>
        <time>2012-04-03T09:41:40Z</time>
      </trkpt>
      <trkpt lat="44.52323" lon="6.34496">
        <ele>822.06</ele>
        <time>2012-04-03T09:41:42Z</time>
      </trkpt>
      <trkpt lat="44.52321" lon="6.34495">
        <ele>824.95</ele>
        <time>2012-04-03T09:41:44Z</time>
      </trkpt>
      <trkpt lat="44.5232" lon="6.34495">
        <ele>819.18</ele>
        <time>2012-04-03T09:41:45Z</time>
      </trkpt>
      <trkpt lat="44.52319" lon="6.34494">
        <ele>823.51</ele>
        <time>2012-04-03T09:41:46Z</time>
      </trkpt>
      <trkpt lat="44.52317" lon="6.34494">
        <ele>826.87</ele>
        <time>2012-04-03T09:41:49Z</time>
      </trkpt>
      <trkpt lat="44.52317" lon="6.34493">
        <ele>819.66</ele>
        <time>2012-04-03T09:41:50Z</time>
      </trkpt>
      <trkpt lat="44.52317" lon="6.34492">
        <ele>821.1</ele>
        <time>2012-04-03T09:41:51Z</time>
      </trkpt>
      <trkpt lat="44.52316" lon="6.3449">
        <ele>821.58</ele>
        <time>2012-04-03T09:41:53Z</time>
      </trkpt>
      <trkpt lat="44.52316" lon="6.34488">
        <ele>824.95</ele>
        <time>2012-04-03T09:41:55Z</time>
      </trkpt>
      <trkpt lat="44.52317" lon="6.34483">
        <ele>821.1</ele>
        <time>2012-04-03T09:42:01Z</time>
      </trkpt>
      <trkpt lat="44.52317" lon="6.34482">
        <ele>824.95</ele>
        <time>2012-04-03T09:42:02Z</time>
      </trkpt>
      <trkpt lat="44.52319" lon="6.34478">
        <ele>828.79</ele>
        <time>2012-04-03T09:42:05Z</time>
      </trkpt>
      <trkpt lat="44.5232" lon="6.34478">
        <ele>821.58</ele>
        <time>2012-04-03T09:42:06Z</time>
      </trkpt>
      <trkpt lat="44.52321" lon="6.34478">
        <ele>825.43</ele>
        <time>2012-04-03T09:42:08Z</time>
      </trkpt>
      <trkpt lat="44.52321" lon="6.34477">
        <ele>823.99</ele>
        <time>2012-04-03T09:42:09Z</time>
      </trkpt>
      <trkpt lat="44.52322" lon="6.34477">
        <ele>824.47</ele>
        <time>2012-04-03T09:42:10Z</time>
      </trkpt>
      <trkpt lat="44.52322" lon="6.34475">
        <ele>823.51</ele>
        <time>2012-04-03T09:42:12Z</time>
      </trkpt>
      <trkpt lat="44.52323" lon="6.34474">
        <ele>829.27</ele>
        <time>2012-04-03T09:42:14Z</time>
      </trkpt>
      <trkpt lat="44.52324" lon="6.34475">
        <ele>825.91</ele>
        <time>2012-04-03T09:42:15Z</time>
      </trkpt>
      <trkpt lat="44.52324" lon="6.34475">
        <ele>825.91</ele>
        <time>2012-04-03T09:42:16Z</time>
      </trkpt>
      <trkpt lat="44.52326" lon="6.34475">
        <ele>827.83</ele>
        <time>2012-04-03T09:42:19Z</time>
      </trkpt>
      <trkpt lat="44.52327" lon="6.34475">
        <ele>823.03</ele>
        <time>2012-04-03T09:42:20Z</time>
      </trkpt>
      <trkpt lat="44.52328" lon="6.34474">
        <ele>828.79</ele>
        <time>2012-04-03T09:42:21Z</time>
      </trkpt>
      <trkpt lat="44.52329" lon="6.34474">
        <ele>825.43</ele>
        <time>2012-04-03T09:42:22Z</time>
      </trkpt>
      <trkpt lat="44.5233" lon="6.34474">
        <ele>829.27</ele>
        <time>2012-04-03T09:42:25Z</time>
      </trkpt>
      <trkpt lat="44.52329" lon="6.34474">
        <ele>827.35</ele>
        <time>2012-04-03T09:42:28Z</time>
      </trkpt>
      <trkpt lat="44.5233" lon="6.34474">
        <ele>826.87</ele>
        <time>2012-04-03T09:42:34Z</time>
      </trkpt>
      <trkpt lat="44.52334" lon="6.34473">
        <ele>827.83</ele>
        <time>2012-04-03T09:42:40Z</time>
      </trkpt>
      <trkpt lat="44.52335" lon="6.34469">
        <ele>828.79</ele>
        <time>2012-04-03T09:42:42Z</time>
      </trkpt>
      <trkpt lat="44.52335" lon="6.34468">
        <ele>824.47</ele>
        <time>2012-04-03T09:42:43Z</time>
      </trkpt>
      <trkpt lat="44.52335" lon="6.34467">
        <ele>829.27</ele>
        <time>2012-04-03T09:42:44Z</time>
      </trkpt>
      <trkpt lat="44.52336" lon="6.34466">
        <ele>832.64</ele>
        <time>2012-04-03T09:42:45Z</time>
      </trkpt>
      <trkpt lat="44.52336" lon="6.34466">
        <ele>825.43</ele>
        <time>2012-04-03T09:42:46Z</time>
      </trkpt>
      <trkpt lat="44.52336" lon="6.34465">
        <ele>829.27</ele>
        <time>2012-04-03T09:42:47Z</time>
      </trkpt>
      <trkpt lat="44.52337" lon="6.34464">
        <ele>826.39</ele>
        <time>2012-04-03T09:42:52Z</time>
      </trkpt>
      <trkpt lat="44.52339" lon="6.3446">
        <ele>828.31</ele>
        <time>2012-04-03T09:42:55Z</time>
      </trkpt>
      <trkpt lat="44.52341" lon="6.34456">
        <ele>828.31</ele>
        <time>2012-04-03T09:42:58Z</time>
      </trkpt>
      <trkpt lat="44.52341" lon="6.34454">
        <ele>831.68</ele>
        <time>2012-04-03T09:43:00Z</time>
      </trkpt>
      <trkpt lat="44.52341" lon="6.34453">
        <ele>830.24</ele>
        <time>2012-04-03T09:43:01Z</time>
      </trkpt>
      <trkpt lat="44.52341" lon="6.34448">
        <ele>829.76</ele>
        <time>2012-04-03T09:43:07Z</time>
      </trkpt>
      <trkpt lat="44.52342" lon="6.34444">
        <ele>831.68</ele>
        <time>2012-04-03T09:43:09Z</time>
      </trkpt>
      <trkpt lat="44.52342" lon="6.34443">
        <ele>828.79</ele>
        <time>2012-04-03T09:43:10Z</time>
      </trkpt>
      <trkpt lat="44.52343" lon="6.34435">
        <ele>830.24</ele>
        <time>2012-04-03T09:43:16Z</time>
      </trkpt>
      <trkpt lat="44.52344" lon="6.34433">
        <ele>831.68</ele>
        <time>2012-04-03T09:43:18Z</time>
      </trkpt>
      <trkpt lat="44.52346" lon="6.3443">
        <ele>829.76</ele>
        <time>2012-04-03T09:43:27Z</time>
      </trkpt>
      <trkpt lat="44.52347" lon="6.34427">
        <ele>829.27</ele>
        <time>2012-04-03T09:43:30Z</time>
      </trkpt>
      <trkpt lat="44.52348" lon="6.34426">
        <ele>832.64</ele>
        <time>2012-04-03T09:43:31Z</time>
      </trkpt>
      <trkpt lat="44.52349" lon="6.34423">
        <ele>829.27</ele>
        <time>2012-04-03T09:43:33Z</time>
      </trkpt>
      <trkpt lat="44.5235" lon="6.34422">
        <ele>832.64</ele>
        <time>2012-04-03T09:43:34Z</time>
      </trkpt>
      <trkpt lat="44.52351" lon="6.34419">
        <ele>835.52</ele>
        <time>2012-04-03T09:43:36Z</time>
      </trkpt>
      <trkpt lat="44.52351" lon="6.34419">
        <ele>830.72</ele>
        <time>2012-04-03T09:43:37Z</time>
      </trkpt>
      <trkpt lat="44.52352" lon="6.34416">
        <ele>834.56</ele>
        <time>2012-04-03T09:43:39Z</time>
      </trkpt>
      <trkpt lat="44.52353" lon="6.34415">
        <ele>830.72</ele>
        <time>2012-04-03T09:43:40Z</time>
      </trkpt>
      <trkpt lat="44.52354" lon="6.34413">
        <ele>834.08</ele>
        <time>2012-04-03T09:43:42Z</time>
      </trkpt>
      <trkpt lat="44.52354" lon="6.34412">
        <ele>834.08</ele>
        <time>2012-04-03T09:43:43Z</time>
      </trkpt>
      <trkpt lat="44.52354" lon="6.34411">
        <ele>829.76</ele>
        <time>2012-04-03T09:43:44Z</time>
      </trkpt>
      <trkpt lat="44.52355" lon="6.34408">
        <ele>835.04</ele>
        <time>2012-04-03T09:43:46Z</time>
      </trkpt>
      <trkpt lat="44.52356" lon="6.34407">
        <ele>834.08</ele>
        <time>2012-04-03T09:43:47Z</time>
      </trkpt>
      <trkpt lat="44.52357" lon="6.34405">
        <ele>830.72</ele>
        <time>2012-04-03T09:43:49Z</time>
      </trkpt>
      <trkpt lat="44.52358" lon="6.34403">
        <ele>835.52</ele>
        <time>2012-04-03T09:43:51Z</time>
      </trkpt>
      <trkpt lat="44.52359" lon="6.34402">
        <ele>835.04</ele>
        <time>2012-04-03T09:43:52Z</time>
      </trkpt>
      <trkpt lat="44.52359" lon="6.344">
        <ele>831.2</ele>
        <time>2012-04-03T09:43:53Z</time>
      </trkpt>
      <trkpt lat="44.5236" lon="6.34399">
        <ele>834.56</ele>
        <time>2012-04-03T09:43:54Z</time>
      </trkpt>
      <trkpt lat="44.52361" lon="6.34391">
        <ele>836</ele>
        <time>2012-04-03T09:44:00Z</time>
      </trkpt>
      <trkpt lat="44.52362" lon="6.34386">
        <ele>836.48</ele>
        <time>2012-04-03T09:44:04Z</time>
      </trkpt>
      <trkpt lat="44.52362" lon="6.34386">
        <ele>832.64</ele>
        <time>2012-04-03T09:44:05Z</time>
      </trkpt>
      <trkpt lat="44.52363" lon="6.34372">
        <ele>834.08</ele>
        <time>2012-04-03T09:44:17Z</time>
      </trkpt>
      <trkpt lat="44.52363" lon="6.34367">
        <ele>831.68</ele>
        <time>2012-04-03T09:44:20Z</time>
      </trkpt>
      <trkpt lat="44.52365" lon="6.34356">
        <ele>831.2</ele>
        <time>2012-04-03T09:44:28Z</time>
      </trkpt>
      <trkpt lat="44.52367" lon="6.34346">
        <ele>832.16</ele>
        <time>2012-04-03T09:44:34Z</time>
      </trkpt>
      <trkpt lat="44.52367" lon="6.34343">
        <ele>833.6</ele>
        <time>2012-04-03T09:44:36Z</time>
      </trkpt>
      <trkpt lat="44.52366" lon="6.3434">
        <ele>832.16</ele>
        <time>2012-04-03T09:44:38Z</time>
      </trkpt>
      <trkpt lat="44.52368" lon="6.34335">
        <ele>830.72</ele>
        <time>2012-04-03T09:44:45Z</time>
      </trkpt>
      <trkpt lat="44.52371" lon="6.34331">
        <ele>834.08</ele>
        <time>2012-04-03T09:44:54Z</time>
      </trkpt>
      <trkpt lat="44.52371" lon="6.34331">
        <ele>830.72</ele>
        <time>2012-04-03T09:44:55Z</time>
      </trkpt>
      <trkpt lat="44.52371" lon="6.34331">
        <ele>831.68</ele>
        <time>2012-04-03T09:45:02Z</time>
      </trkpt>
      <trkpt lat="44.52369" lon="6.34329">
        <ele>830.72</ele>
        <time>2012-04-03T09:45:06Z</time>
      </trkpt>
      <trkpt lat="44.52368" lon="6.34328">
        <ele>830.72</ele>
        <time>2012-04-03T09:45:07Z</time>
      </trkpt>
      <trkpt lat="44.52367" lon="6.34323">
        <ele>831.68</ele>
        <time>2012-04-03T09:45:10Z</time>
      </trkpt>
      <trkpt lat="44.52367" lon="6.34316">
        <ele>831.68</ele>
        <time>2012-04-03T09:45:16Z</time>
      </trkpt>
      <trkpt lat="44.52367" lon="6.34309">
        <ele>825.91</ele>
        <time>2012-04-03T09:45:22Z</time>
      </trkpt>
      <trkpt lat="44.52367" lon="6.34307">
        <ele>830.72</ele>
        <time>2012-04-03T09:45:23Z</time>
      </trkpt>
      <trkpt lat="44.52366" lon="6.34304">
        <ele>833.6</ele>
        <time>2012-04-03T09:45:25Z</time>
      </trkpt>
      <trkpt lat="44.52365" lon="6.34301">
        <ele>827.35</ele>
        <time>2012-04-03T09:45:27Z</time>
      </trkpt>
      <trkpt lat="44.52365" lon="6.34299">
        <ele>829.27</ele>
        <time>2012-04-03T09:45:28Z</time>
      </trkpt>
      <trkpt lat="44.52365" lon="6.34294">
        <ele>832.64</ele>
        <time>2012-04-03T09:45:33Z</time>
      </trkpt>
      <trkpt lat="44.52365" lon="6.3429">
        <ele>830.72</ele>
        <time>2012-04-03T09:45:36Z</time>
      </trkpt>
      <trkpt lat="44.52363" lon="6.34282">
        <ele>830.24</ele>
        <time>2012-04-03T09:45:40Z</time>
      </trkpt>
      <trkpt lat="44.52367" lon="6.3426">
        <ele>830.72</ele>
        <time>2012-04-03T09:45:55Z</time>
      </trkpt>
      <trkpt lat="44.52369" lon="6.34257">
        <ele>826.87</ele>
        <time>2012-04-03T09:45:58Z</time>
      </trkpt>
      <trkpt lat="44.5237" lon="6.34255">
        <ele>829.76</ele>
        <time>2012-04-03T09:46:00Z</time>
      </trkpt>
      <trkpt lat="44.52372" lon="6.34249">
        <ele>826.87</ele>
        <time>2012-04-03T09:46:04Z</time>
      </trkpt>
      <trkpt lat="44.52374" lon="6.34246">
        <ele>828.31</ele>
        <time>2012-04-03T09:46:07Z</time>
      </trkpt>
      <trkpt lat="44.5238" lon="6.34241">
        <ele>827.83</ele>
        <time>2012-04-03T09:46:13Z</time>
      </trkpt>
      <trkpt lat="44.52382" lon="6.3424">
        <ele>829.27</ele>
        <time>2012-04-03T09:46:15Z</time>
      </trkpt>
      <trkpt lat="44.52389" lon="6.34232">
        <ele>828.79</ele>
        <time>2012-04-03T09:46:24Z</time>
      </trkpt>
      <trkpt lat="44.52391" lon="6.34227">
        <ele>827.83</ele>
        <time>2012-04-03T09:46:28Z</time>
      </trkpt>
      <trkpt lat="44.52392" lon="6.34226">
        <ele>827.83</ele>
        <time>2012-04-03T09:46:29Z</time>
      </trkpt>
      <trkpt lat="44.52398" lon="6.34218">
        <ele>826.87</ele>
        <time>2012-04-03T09:46:36Z</time>
      </trkpt>
      <trkpt lat="44.52405" lon="6.34201">
        <ele>830.24</ele>
        <time>2012-04-03T09:46:48Z</time>
      </trkpt>
      <trkpt lat="44.52406" lon="6.34199">
        <ele>828.79</ele>
        <time>2012-04-03T09:46:50Z</time>
      </trkpt>
      <trkpt lat="44.52407" lon="6.34196">
        <ele>829.76</ele>
        <time>2012-04-03T09:46:52Z</time>
      </trkpt>
      <trkpt lat="44.52408" lon="6.34194">
        <ele>833.12</ele>
        <time>2012-04-03T09:46:54Z</time>
      </trkpt>
      <trkpt lat="44.52409" lon="6.34193">
        <ele>828.79</ele>
        <time>2012-04-03T09:46:55Z</time>
      </trkpt>
      <trkpt lat="44.52415" lon="6.34171">
        <ele>828.31</ele>
        <time>2012-04-03T09:47:10Z</time>
      </trkpt>
      <trkpt lat="44.52415" lon="6.34172">
        <ele>828.79</ele>
        <time>2012-04-03T09:47:20Z</time>
      </trkpt>
      <trkpt lat="44.52414" lon="6.34175">
        <ele>828.31</ele>
        <time>2012-04-03T09:47:28Z</time>
      </trkpt>
      <trkpt lat="44.52418" lon="6.34161">
        <ele>828.79</ele>
        <time>2012-04-03T09:47:40Z</time>
      </trkpt>
      <trkpt lat="44.52421" lon="6.34153">
        <ele>828.79</ele>
        <time>2012-04-03T09:47:52Z</time>
      </trkpt>
      <trkpt lat="44.52421" lon="6.34153">
        <ele>828.79</ele>
        <time>2012-04-03T09:48:16Z</time>
      </trkpt>
      <trkpt lat="44.52421" lon="6.34153">
        <ele>831.68</ele>
        <time>2012-04-03T09:48:21Z</time>
      </trkpt>
      <trkpt lat="44.52421" lon="6.34153">
        <ele>828.79</ele>
        <time>2012-04-03T09:48:22Z</time>
      </trkpt>
      <trkpt lat="44.52421" lon="6.34153">
        <ele>827.83</ele>
        <time>2012-04-03T09:48:29Z</time>
      </trkpt>
      <trkpt lat="44.52421" lon="6.34153">
        <ele>827.35</ele>
        <time>2012-04-03T09:48:39Z</time>
      </trkpt>
      <trkpt lat="44.52421" lon="6.34153">
        <ele>828.79</ele>
        <time>2012-04-03T09:48:41Z</time>
      </trkpt>
      <trkpt lat="44.52421" lon="6.34154">
        <ele>828.31</ele>
        <time>2012-04-03T09:48:57Z</time>
      </trkpt>
      <trkpt lat="44.52421" lon="6.34154">
        <ele>827.83</ele>
        <time>2012-04-03T09:49:20Z</time>
      </trkpt>
      <trkpt lat="44.52421" lon="6.34154">
        <ele>827.35</ele>
        <time>2012-04-03T09:49:35Z</time>
      </trkpt>
      <trkpt lat="44.52422" lon="6.34155">
        <ele>828.31</ele>
        <time>2012-04-03T09:49:50Z</time>
      </trkpt>
      <trkpt lat="44.52423" lon="6.34158">
        <ele>827.83</ele>
        <time>2012-04-03T09:50:03Z</time>
      </trkpt>
      <trkpt lat="44.52423" lon="6.34157">
        <ele>827.83</ele>
        <time>2012-04-03T09:50:21Z</time>
      </trkpt>
      <trkpt lat="44.52423" lon="6.34157">
        <ele>828.79</ele>
        <time>2012-04-03T09:50:39Z</time>
      </trkpt>
      <trkpt lat="44.52423" lon="6.34158">
        <ele>828.31</ele>
        <time>2012-04-03T09:50:58Z</time>
      </trkpt>
      <trkpt lat="44.52422" lon="6.34157">
        <ele>827.83</ele>
        <time>2012-04-03T09:51:16Z</time>
      </trkpt>
      <trkpt lat="44.52424" lon="6.34157">
        <ele>828.31</ele>
        <time>2012-04-03T09:51:27Z</time>
      </trkpt>
      <trkpt lat="44.52423" lon="6.34156">
        <ele>828.31</ele>
        <time>2012-04-03T09:51:44Z</time>
      </trkpt>
      <trkpt lat="44.52423" lon="6.34156">
        <ele>832.16</ele>
        <time>2012-04-03T09:51:49Z</time>
      </trkpt>
      <trkpt lat="44.52423" lon="6.34156">
        <ele>827.35</ele>
        <time>2012-04-03T09:51:50Z</time>
      </trkpt>
      <trkpt lat="44.52423" lon="6.34156">
        <ele>830.72</ele>
        <time>2012-04-03T09:51:51Z</time>
      </trkpt>
      <trkpt lat="44.52424" lon="6.34155">
        <ele>827.83</ele>
        <time>2012-04-03T09:52:00Z</time>
      </trkpt>
      <trkpt lat="44.52424" lon="6.34155">
        <ele>828.31</ele>
        <time>2012-04-03T09:52:23Z</time>
      </trkpt>
      <trkpt lat="44.52424" lon="6.34155">
        <ele>828.31</ele>
        <time>2012-04-03T09:52:41Z</time>
      </trkpt>
      <trkpt lat="44.52423" lon="6.34154">
        <ele>827.83</ele>
        <time>2012-04-03T09:52:56Z</time>
      </trkpt>
      <trkpt lat="44.52423" lon="6.34154">
        <ele>827.83</ele>
        <time>2012-04-03T09:53:18Z</time>
      </trkpt>
      <trkpt lat="44.52423" lon="6.34155">
        <ele>829.27</ele>
        <time>2012-04-03T09:53:35Z</time>
      </trkpt>
      <trkpt lat="44.52423" lon="6.34155">
        <ele>827.35</ele>
        <time>2012-04-03T09:54:02Z</time>
      </trkpt>
      <trkpt lat="44.52423" lon="6.34155">
        <ele>828.79</ele>
        <time>2012-04-03T09:54:29Z</time>
      </trkpt>
      <trkpt lat="44.52423" lon="6.34157">
        <ele>828.79</ele>
        <time>2012-04-03T09:54:58Z</time>
      </trkpt>
      <trkpt lat="44.52422" lon="6.34158">
        <ele>828.31</ele>
        <time>2012-04-03T09:55:01Z</time>
      </trkpt>
      <trkpt lat="44.52435" lon="6.34131">
        <ele>880.22</ele>
        <time>2012-04-03T06:11:29Z</time>
      </trkpt>
    </trkseg>
  </trk>
</gpx>